<?xml version='1.0' encoding='UTF-8'?>
<gpx version="1.1" creator="https://www.komoot.de" xmlns="http://www.topografix.com/GPX/1/1" xmlns:xsi="http://www.w3.org/2001/XMLSchema-instance" xsi:schemaLocation="http://www.topografix.com/GPX/1/1 http://www.topografix.com/GPX/1/1/gpx.xsd">
  <metadata>
    <name>Leśna - Gręzówka - Sięciaszka</name>
    <author>
      <link href="https://www.komoot.de">
        <text>komoot</text>
        <type>text/html</type>
      </link>
    </author>
  </metadata>
  <trk>
    <name>Leśna - Gręzówka - Sięciaszka</name>
    <type>racebike</type>
    <trkseg>
      <trkpt lat="52.143210" lon="22.256092">
        <ele>168.067571</ele>
        <time>2026-09-05T10:32:55.639Z</time>
      </trkpt>
      <trkpt lat="52.142286" lon="22.254768">
        <ele>167.808382</ele>
        <time>2026-09-05T10:33:09.405Z</time>
      </trkpt>
      <trkpt lat="52.142163" lon="22.254594">
        <ele>167.680880</ele>
        <time>2026-09-05T10:33:11.197Z</time>
      </trkpt>
      <trkpt lat="52.142212" lon="22.254477">
        <ele>167.612835</ele>
        <time>2026-09-05T10:33:12.535Z</time>
      </trkpt>
      <trkpt lat="52.142124" lon="22.254396">
        <ele>167.533721</ele>
        <time>2026-09-05T10:33:15.409Z</time>
      </trkpt>
      <trkpt lat="52.141876" lon="22.254044">
        <ele>167.276275</ele>
        <time>2026-09-05T10:33:24.749Z</time>
      </trkpt>
      <trkpt lat="52.141273" lon="22.253230">
        <ele>166.663329</ele>
        <time>2026-09-05T10:33:46.007Z</time>
      </trkpt>
      <trkpt lat="52.140811" lon="22.252563">
        <ele>164.997825</ele>
        <time>2026-09-05T10:34:01.329Z</time>
      </trkpt>
      <trkpt lat="52.140752" lon="22.252572">
        <ele>164.837065</ele>
        <time>2026-09-05T10:34:02.747Z</time>
      </trkpt>
      <trkpt lat="52.139277" lon="22.250468">
        <ele>159.591619</ele>
        <time>2026-09-05T10:34:18.607Z</time>
      </trkpt>
      <trkpt lat="52.139061" lon="22.250159">
        <ele>158.836939</ele>
        <time>2026-09-05T10:34:21.119Z</time>
      </trkpt>
      <trkpt lat="52.139041" lon="22.250124">
        <ele>158.759880</ele>
        <time>2026-09-05T10:34:21.374Z</time>
      </trkpt>
      <trkpt lat="52.138900" lon="22.249948">
        <ele>158.293533</ele>
        <time>2026-09-05T10:34:22.942Z</time>
      </trkpt>
      <trkpt lat="52.138866" lon="22.249906">
        <ele>158.181509</ele>
        <time>2026-09-05T10:34:23.328Z</time>
      </trkpt>
      <trkpt lat="52.137594" lon="22.248427">
        <ele>154.412904</ele>
        <time>2026-09-05T10:34:36.874Z</time>
      </trkpt>
      <trkpt lat="52.136517" lon="22.247219">
        <ele>151.198205</ele>
        <time>2026-09-05T10:34:47.837Z</time>
      </trkpt>
      <trkpt lat="52.136458" lon="22.247141">
        <ele>151.001395</ele>
        <time>2026-09-05T10:34:48.460Z</time>
      </trkpt>
      <trkpt lat="52.135661" lon="22.245850">
        <ele>148.139261</ele>
        <time>2026-09-05T10:34:57.811Z</time>
      </trkpt>
      <trkpt lat="52.134935" lon="22.244677">
        <ele>146.609759</ele>
        <time>2026-09-05T10:35:06.908Z</time>
      </trkpt>
      <trkpt lat="52.134873" lon="22.244583">
        <ele>146.483068</ele>
        <time>2026-09-05T10:35:07.700Z</time>
      </trkpt>
      <trkpt lat="52.134475" lon="22.243957">
        <ele>145.655524</ele>
        <time>2026-09-05T10:35:13.175Z</time>
      </trkpt>
      <trkpt lat="52.134212" lon="22.243655">
        <ele>145.619745</ele>
        <time>2026-09-05T10:35:16.727Z</time>
      </trkpt>
      <trkpt lat="52.134082" lon="22.243514">
        <ele>145.690906</ele>
        <time>2026-09-05T10:35:18.593Z</time>
      </trkpt>
      <trkpt lat="52.132112" lon="22.241377">
        <ele>146.996803</ele>
        <time>2026-09-05T10:35:52.718Z</time>
      </trkpt>
      <trkpt lat="52.131907" lon="22.241034">
        <ele>147.200876</ele>
        <time>2026-09-05T10:35:56.848Z</time>
      </trkpt>
      <trkpt lat="52.131762" lon="22.240645">
        <ele>147.394880</ele>
        <time>2026-09-05T10:36:00.723Z</time>
      </trkpt>
      <trkpt lat="52.131706" lon="22.240389">
        <ele>147.510731</ele>
        <time>2026-09-05T10:36:03.027Z</time>
      </trkpt>
      <trkpt lat="52.131588" lon="22.239536">
        <ele>147.827785</ele>
        <time>2026-09-05T10:36:10.031Z</time>
      </trkpt>
      <trkpt lat="52.131624" lon="22.239487">
        <ele>147.854298</ele>
        <time>2026-09-05T10:36:10.701Z</time>
      </trkpt>
      <trkpt lat="52.131588" lon="22.239536">
        <ele>147.880811</ele>
        <time>2026-09-05T10:36:11.552Z</time>
      </trkpt>
      <trkpt lat="52.131554" lon="22.239555">
        <ele>147.901126</ele>
        <time>2026-09-05T10:36:12.037Z</time>
      </trkpt>
      <trkpt lat="52.129954" lon="22.240439">
        <ele>149.279672</ele>
        <time>2026-09-05T10:36:35.089Z</time>
      </trkpt>
      <trkpt lat="52.129170" lon="22.240872">
        <ele>150.524536</ele>
        <time>2026-09-05T10:36:49.630Z</time>
      </trkpt>
      <trkpt lat="52.128642" lon="22.241168">
        <ele>151.362197</ele>
        <time>2026-09-05T10:37:00.232Z</time>
      </trkpt>
      <trkpt lat="52.127362" lon="22.241910">
        <ele>153.334582</ele>
        <time>2026-09-05T10:37:22.956Z</time>
      </trkpt>
      <trkpt lat="52.124782" lon="22.243575">
        <ele>154.615646</ele>
        <time>2026-09-05T10:38:03.951Z</time>
      </trkpt>
      <trkpt lat="52.124438" lon="22.243790">
        <ele>154.054511</ele>
        <time>2026-09-05T10:38:07.163Z</time>
      </trkpt>
      <trkpt lat="52.123502" lon="22.244655">
        <ele>152.564326</ele>
        <time>2026-09-05T10:38:15.895Z</time>
      </trkpt>
      <trkpt lat="52.123317" lon="22.244775">
        <ele>152.394832</ele>
        <time>2026-09-05T10:38:17.586Z</time>
      </trkpt>
      <trkpt lat="52.123090" lon="22.244856">
        <ele>152.197033</ele>
        <time>2026-09-05T10:38:19.671Z</time>
      </trkpt>
      <trkpt lat="52.122490" lon="22.244812">
        <ele>151.685814</ele>
        <time>2026-09-05T10:38:26.001Z</time>
      </trkpt>
      <trkpt lat="52.122302" lon="22.244726">
        <ele>151.519602</ele>
        <time>2026-09-05T10:38:28.596Z</time>
      </trkpt>
      <trkpt lat="52.121987" lon="22.244498">
        <ele>151.226200</ele>
        <time>2026-09-05T10:38:33.817Z</time>
      </trkpt>
      <trkpt lat="52.121872" lon="22.244468">
        <ele>151.293063</ele>
        <time>2026-09-05T10:38:35.693Z</time>
      </trkpt>
      <trkpt lat="52.121708" lon="22.244489">
        <ele>151.398272</ele>
        <time>2026-09-05T10:38:38.289Z</time>
      </trkpt>
      <trkpt lat="52.120758" lon="22.244864">
        <ele>152.023427</ele>
        <time>2026-09-05T10:38:52.338Z</time>
      </trkpt>
      <trkpt lat="52.120332" lon="22.244926">
        <ele>152.296958</ele>
        <time>2026-09-05T10:38:57.954Z</time>
      </trkpt>
      <trkpt lat="52.119386" lon="22.244783">
        <ele>152.628104</ele>
        <time>2026-09-05T10:39:09.736Z</time>
      </trkpt>
      <trkpt lat="52.119039" lon="22.244619">
        <ele>152.739190</ele>
        <time>2026-09-05T10:39:14.265Z</time>
      </trkpt>
      <trkpt lat="52.118755" lon="22.244376">
        <ele>152.837823</ele>
        <time>2026-09-05T10:39:18.390Z</time>
      </trkpt>
      <trkpt lat="52.118213" lon="22.243828">
        <ele>153.287246</ele>
        <time>2026-09-05T10:39:26.927Z</time>
      </trkpt>
      <trkpt lat="52.117031" lon="22.243191">
        <ele>154.561036</ele>
        <time>2026-09-05T10:39:46.672Z</time>
      </trkpt>
      <trkpt lat="52.116708" lon="22.243104">
        <ele>154.830465</ele>
        <time>2026-09-05T10:39:51.946Z</time>
      </trkpt>
      <trkpt lat="52.116453" lon="22.243172">
        <ele>154.962260</ele>
        <time>2026-09-05T10:39:56.027Z</time>
      </trkpt>
      <trkpt lat="52.115259" lon="22.244546">
        <ele>155.691652</ele>
        <time>2026-09-05T10:40:14.840Z</time>
      </trkpt>
      <trkpt lat="52.114976" lon="22.244520">
        <ele>155.742799</ele>
        <time>2026-09-05T10:40:17.985Z</time>
      </trkpt>
      <trkpt lat="52.114751" lon="22.244417">
        <ele>155.784974</ele>
        <time>2026-09-05T10:40:20.582Z</time>
      </trkpt>
      <trkpt lat="52.112436" lon="22.243352">
        <ele>155.755781</ele>
        <time>2026-09-05T10:40:51.270Z</time>
      </trkpt>
      <trkpt lat="52.112337" lon="22.243375">
        <ele>155.734351</ele>
        <time>2026-09-05T10:40:52.395Z</time>
      </trkpt>
      <trkpt lat="52.112241" lon="22.243457">
        <ele>155.711120</ele>
        <time>2026-09-05T10:40:53.574Z</time>
      </trkpt>
      <trkpt lat="52.112185" lon="22.243674">
        <ele>155.680144</ele>
        <time>2026-09-05T10:40:55.112Z</time>
      </trkpt>
      <trkpt lat="52.110673" lon="22.250550">
        <ele>149.425190</ele>
        <time>2026-09-05T10:41:36.023Z</time>
      </trkpt>
      <trkpt lat="52.110580" lon="22.250875">
        <ele>149.190997</ele>
        <time>2026-09-05T10:41:38.108Z</time>
      </trkpt>
      <trkpt lat="52.110451" lon="22.251105">
        <ele>148.987545</ele>
        <time>2026-09-05T10:41:39.948Z</time>
      </trkpt>
      <trkpt lat="52.110282" lon="22.251241">
        <ele>148.787051</ele>
        <time>2026-09-05T10:41:41.805Z</time>
      </trkpt>
      <trkpt lat="52.109468" lon="22.251749">
        <ele>148.079057</ele>
        <time>2026-09-05T10:41:51.068Z</time>
      </trkpt>
      <trkpt lat="52.109342" lon="22.251916">
        <ele>148.029453</ele>
        <time>2026-09-05T10:41:52.908Z</time>
      </trkpt>
      <trkpt lat="52.109060" lon="22.252399">
        <ele>147.904489</ele>
        <time>2026-09-05T10:41:57.605Z</time>
      </trkpt>
      <trkpt lat="52.108160" lon="22.254685">
        <ele>147.476282</ele>
        <time>2026-09-05T10:42:15.910Z</time>
      </trkpt>
      <trkpt lat="52.107796" lon="22.254079">
        <ele>147.375091</ele>
        <time>2026-09-05T10:42:21.665Z</time>
      </trkpt>
      <trkpt lat="52.105066" lon="22.248864">
        <ele>147.799043</ele>
        <time>2026-09-05T10:43:12.723Z</time>
      </trkpt>
      <trkpt lat="52.104189" lon="22.247342">
        <ele>148.950829</ele>
        <time>2026-09-05T10:43:31.685Z</time>
      </trkpt>
      <trkpt lat="52.103558" lon="22.246141">
        <ele>149.627398</ele>
        <time>2026-09-05T10:43:47.431Z</time>
      </trkpt>
      <trkpt lat="52.103289" lon="22.245393">
        <ele>149.904269</ele>
        <time>2026-09-05T10:43:55.305Z</time>
      </trkpt>
      <trkpt lat="52.101676" lon="22.240565">
        <ele>149.948111</ele>
        <time>2026-09-05T10:44:32.696Z</time>
      </trkpt>
      <trkpt lat="52.101617" lon="22.240219">
        <ele>149.981767</ele>
        <time>2026-09-05T10:44:35.792Z</time>
      </trkpt>
      <trkpt lat="52.101620" lon="22.239135">
        <ele>150.083367</ele>
        <time>2026-09-05T10:44:44.400Z</time>
      </trkpt>
      <trkpt lat="52.101574" lon="22.238929">
        <ele>150.146985</ele>
        <time>2026-09-05T10:44:46.232Z</time>
      </trkpt>
      <trkpt lat="52.101631" lon="22.238832">
        <ele>150.229954</ele>
        <time>2026-09-05T10:44:47.693Z</time>
      </trkpt>
      <trkpt lat="52.101615" lon="22.238700">
        <ele>150.313114</ele>
        <time>2026-09-05T10:44:49.279Z</time>
      </trkpt>
      <trkpt lat="52.101552" lon="22.238646">
        <ele>150.384756</ele>
        <time>2026-09-05T10:44:50.563Z</time>
      </trkpt>
      <trkpt lat="52.101484" lon="22.238685">
        <ele>150.457300</ele>
        <time>2026-09-05T10:44:51.965Z</time>
      </trkpt>
      <trkpt lat="52.101456" lon="22.238792">
        <ele>150.529186</ele>
        <time>2026-09-05T10:44:53.276Z</time>
      </trkpt>
      <trkpt lat="52.101156" lon="22.238859">
        <ele>150.833878</ele>
        <time>2026-09-05T10:44:57.791Z</time>
      </trkpt>
      <trkpt lat="52.099773" lon="22.239375">
        <ele>152.353181</ele>
        <time>2026-09-05T10:45:19.975Z</time>
      </trkpt>
      <trkpt lat="52.099551" lon="22.239603">
        <ele>152.685371</ele>
        <time>2026-09-05T10:45:24.410Z</time>
      </trkpt>
      <trkpt lat="52.099394" lon="22.239907">
        <ele>152.994128</ele>
        <time>2026-09-05T10:45:28.542Z</time>
      </trkpt>
      <trkpt lat="52.097784" lon="22.244427">
        <ele>156.057288</ele>
        <time>2026-09-05T10:46:18.458Z</time>
      </trkpt>
      <trkpt lat="52.095936" lon="22.249496">
        <ele>154.842972</ele>
        <time>2026-09-05T10:46:55.161Z</time>
      </trkpt>
      <trkpt lat="52.095602" lon="22.249836">
        <ele>155.134537</ele>
        <time>2026-09-05T10:47:01.389Z</time>
      </trkpt>
      <trkpt lat="52.094308" lon="22.250651">
        <ele>155.646058</ele>
        <time>2026-09-05T10:47:24.944Z</time>
      </trkpt>
      <trkpt lat="52.090788" lon="22.252932">
        <ele>152.721372</ele>
        <time>2026-09-05T10:48:01.371Z</time>
      </trkpt>
      <trkpt lat="52.090123" lon="22.253473">
        <ele>152.228791</ele>
        <time>2026-09-05T10:48:08.736Z</time>
      </trkpt>
      <trkpt lat="52.089844" lon="22.253701">
        <ele>152.021942</ele>
        <time>2026-09-05T10:48:12.248Z</time>
      </trkpt>
      <trkpt lat="52.089582" lon="22.254056">
        <ele>152.233991</ele>
        <time>2026-09-05T10:48:16.562Z</time>
      </trkpt>
      <trkpt lat="52.089544" lon="22.254117">
        <ele>152.285813</ele>
        <time>2026-09-05T10:48:17.307Z</time>
      </trkpt>
      <trkpt lat="52.089072" lon="22.255645">
        <ele>153.306085</ele>
        <time>2026-09-05T10:48:34.417Z</time>
      </trkpt>
      <trkpt lat="52.088894" lon="22.256099">
        <ele>153.627372</ele>
        <time>2026-09-05T10:48:39.855Z</time>
      </trkpt>
      <trkpt lat="52.088648" lon="22.256500">
        <ele>153.791732</ele>
        <time>2026-09-05T10:48:45.232Z</time>
      </trkpt>
      <trkpt lat="52.088272" lon="22.257014">
        <ele>153.931018</ele>
        <time>2026-09-05T10:48:52.001Z</time>
      </trkpt>
      <trkpt lat="52.087927" lon="22.257576">
        <ele>154.069479</ele>
        <time>2026-09-05T10:48:58.011Z</time>
      </trkpt>
      <trkpt lat="52.087682" lon="22.258076">
        <ele>154.180943</ele>
        <time>2026-09-05T10:49:02.411Z</time>
      </trkpt>
      <trkpt lat="52.087505" lon="22.258203">
        <ele>154.203994</ele>
        <time>2026-09-05T10:49:04.517Z</time>
      </trkpt>
      <trkpt lat="52.086958" lon="22.258440">
        <ele>153.447736</ele>
        <time>2026-09-05T10:49:10.345Z</time>
      </trkpt>
      <trkpt lat="52.086370" lon="22.258807">
        <ele>152.606364</ele>
        <time>2026-09-05T10:49:16.254Z</time>
      </trkpt>
      <trkpt lat="52.086205" lon="22.258973">
        <ele>152.347199</ele>
        <time>2026-09-05T10:49:17.972Z</time>
      </trkpt>
      <trkpt lat="52.086119" lon="22.259162">
        <ele>152.154129</ele>
        <time>2026-09-05T10:49:19.220Z</time>
      </trkpt>
      <trkpt lat="52.086102" lon="22.259348">
        <ele>151.999752</ele>
        <time>2026-09-05T10:49:20.217Z</time>
      </trkpt>
      <trkpt lat="52.085738" lon="22.260772">
        <ele>150.999336</ele>
        <time>2026-09-05T10:49:28.364Z</time>
      </trkpt>
      <trkpt lat="52.085649" lon="22.261119">
        <ele>150.765653</ele>
        <time>2026-09-05T10:49:30.477Z</time>
      </trkpt>
      <trkpt lat="52.085465" lon="22.261640">
        <ele>150.392197</ele>
        <time>2026-09-05T10:49:34.574Z</time>
      </trkpt>
      <trkpt lat="52.085145" lon="22.262417">
        <ele>150.122130</ele>
        <time>2026-09-05T10:49:42.752Z</time>
      </trkpt>
      <trkpt lat="52.085121" lon="22.262475">
        <ele>150.147252</ele>
        <time>2026-09-05T10:49:43.432Z</time>
      </trkpt>
      <trkpt lat="52.084828" lon="22.262897">
        <ele>150.376017</ele>
        <time>2026-09-05T10:49:49.724Z</time>
      </trkpt>
      <trkpt lat="52.084789" lon="22.262953">
        <ele>150.406426</ele>
        <time>2026-09-05T10:49:50.533Z</time>
      </trkpt>
      <trkpt lat="52.082285" lon="22.264478">
        <ele>151.512520</ele>
        <time>2026-09-05T10:50:25.627Z</time>
      </trkpt>
      <trkpt lat="52.081920" lon="22.264769">
        <ele>151.558811</ele>
        <time>2026-09-05T10:50:30.266Z</time>
      </trkpt>
      <trkpt lat="52.081856" lon="22.264904">
        <ele>151.543329</ele>
        <time>2026-09-05T10:50:31.471Z</time>
      </trkpt>
      <trkpt lat="52.081812" lon="22.265052">
        <ele>151.528400</ele>
        <time>2026-09-05T10:50:32.633Z</time>
      </trkpt>
      <trkpt lat="52.081300" lon="22.270748">
        <ele>150.916072</ele>
        <time>2026-09-05T10:51:12.529Z</time>
      </trkpt>
      <trkpt lat="52.081200" lon="22.271369">
        <ele>150.865442</ele>
        <time>2026-09-05T10:51:16.968Z</time>
      </trkpt>
      <trkpt lat="52.080975" lon="22.271857">
        <ele>150.817327</ele>
        <time>2026-09-05T10:51:21.196Z</time>
      </trkpt>
      <trkpt lat="52.080092" lon="22.273320">
        <ele>151.031808</ele>
        <time>2026-09-05T10:51:36.087Z</time>
      </trkpt>
      <trkpt lat="52.075234" lon="22.281356">
        <ele>155.320533</ele>
        <time>2026-09-05T10:53:12.375Z</time>
      </trkpt>
      <trkpt lat="52.075186" lon="22.281467">
        <ele>155.415750</ele>
        <time>2026-09-05T10:53:13.711Z</time>
      </trkpt>
      <trkpt lat="52.075139" lon="22.281550">
        <ele>155.494927</ele>
        <time>2026-09-05T10:53:14.826Z</time>
      </trkpt>
      <trkpt lat="52.075056" lon="22.281853">
        <ele>155.727660</ele>
        <time>2026-09-05T10:53:18.174Z</time>
      </trkpt>
      <trkpt lat="52.074689" lon="22.283599">
        <ele>157.022266</ele>
        <time>2026-09-05T10:53:36.839Z</time>
      </trkpt>
      <trkpt lat="52.074024" lon="22.286729">
        <ele>158.405846</ele>
        <time>2026-09-05T10:54:05.222Z</time>
      </trkpt>
      <trkpt lat="52.073719" lon="22.288164">
        <ele>158.765788</ele>
        <time>2026-09-05T10:54:17.248Z</time>
      </trkpt>
      <trkpt lat="52.073234" lon="22.290474">
        <ele>159.199309</ele>
        <time>2026-09-05T10:54:36.569Z</time>
      </trkpt>
      <trkpt lat="52.073133" lon="22.290957">
        <ele>159.265961</ele>
        <time>2026-09-05T10:54:40.702Z</time>
      </trkpt>
      <trkpt lat="52.072863" lon="22.292240">
        <ele>159.341796</ele>
        <time>2026-09-05T10:54:50.633Z</time>
      </trkpt>
      <trkpt lat="52.072490" lon="22.294024">
        <ele>158.959897</ele>
        <time>2026-09-05T10:55:02.792Z</time>
      </trkpt>
      <trkpt lat="52.071756" lon="22.293954">
        <ele>158.960403</ele>
        <time>2026-09-05T10:55:10.983Z</time>
      </trkpt>
      <trkpt lat="52.072490" lon="22.294024">
        <ele>159.351964</ele>
        <time>2026-09-05T10:55:21.493Z</time>
      </trkpt>
      <trkpt lat="52.072313" lon="22.294902">
        <ele>159.654429</ele>
        <time>2026-09-05T10:55:29.874Z</time>
      </trkpt>
      <trkpt lat="52.072152" lon="22.295703">
        <ele>159.776757</ele>
        <time>2026-09-05T10:55:37.238Z</time>
      </trkpt>
      <trkpt lat="52.070753" lon="22.302280">
        <ele>159.556526</ele>
        <time>2026-09-05T10:56:27.011Z</time>
      </trkpt>
      <trkpt lat="52.069326" lon="22.309032">
        <ele>157.123911</ele>
        <time>2026-09-05T10:57:12.551Z</time>
      </trkpt>
      <trkpt lat="52.069213" lon="22.309565">
        <ele>156.916195</ele>
        <time>2026-09-05T10:57:16.243Z</time>
      </trkpt>
      <trkpt lat="52.069274" lon="22.309607">
        <ele>156.876507</ele>
        <time>2026-09-05T10:57:16.939Z</time>
      </trkpt>
      <trkpt lat="52.070149" lon="22.310214">
        <ele>156.306558</ele>
        <time>2026-09-05T10:57:27.002Z</time>
      </trkpt>
      <trkpt lat="52.074784" lon="22.313425">
        <ele>152.959010</ele>
        <time>2026-09-05T10:58:17.982Z</time>
      </trkpt>
      <trkpt lat="52.074922" lon="22.313577">
        <ele>152.907748</ele>
        <time>2026-09-05T10:58:20.124Z</time>
      </trkpt>
      <trkpt lat="52.074948" lon="22.313686">
        <ele>152.885643</ele>
        <time>2026-09-05T10:58:21.038Z</time>
      </trkpt>
      <trkpt lat="52.074958" lon="22.313908">
        <ele>152.843559</ele>
        <time>2026-09-05T10:58:22.810Z</time>
      </trkpt>
      <trkpt lat="52.074915" lon="22.314987">
        <ele>152.662087</ele>
        <time>2026-09-05T10:58:31.567Z</time>
      </trkpt>
      <trkpt lat="52.074706" lon="22.319534">
        <ele>152.013848</ele>
        <time>2026-09-05T10:59:02.173Z</time>
      </trkpt>
      <trkpt lat="52.074614" lon="22.321124">
        <ele>151.895539</ele>
        <time>2026-09-05T10:59:13.452Z</time>
      </trkpt>
      <trkpt lat="52.074666" lon="22.321345">
        <ele>151.906905</ele>
        <time>2026-09-05T10:59:15.187Z</time>
      </trkpt>
      <trkpt lat="52.075219" lon="22.322572">
        <ele>151.979987</ele>
        <time>2026-09-05T10:59:26.943Z</time>
      </trkpt>
      <trkpt lat="52.075568" lon="22.323182">
        <ele>151.904339</ele>
        <time>2026-09-05T10:59:33.227Z</time>
      </trkpt>
      <trkpt lat="52.075732" lon="22.323330">
        <ele>151.813743</ele>
        <time>2026-09-05T10:59:35.479Z</time>
      </trkpt>
      <trkpt lat="52.076669" lon="22.323974">
        <ele>151.322368</ele>
        <time>2026-09-05T10:59:46.479Z</time>
      </trkpt>
      <trkpt lat="52.076763" lon="22.324116">
        <ele>151.260404</ele>
        <time>2026-09-05T10:59:47.733Z</time>
      </trkpt>
      <trkpt lat="52.076758" lon="22.324334">
        <ele>151.195634</ele>
        <time>2026-09-05T10:59:49.013Z</time>
      </trkpt>
      <trkpt lat="52.076501" lon="22.325709">
        <ele>150.380674</ele>
        <time>2026-09-05T10:59:57.271Z</time>
      </trkpt>
      <trkpt lat="52.076481" lon="22.325938">
        <ele>150.239167</ele>
        <time>2026-09-05T10:59:58.608Z</time>
      </trkpt>
      <trkpt lat="52.076553" lon="22.326221">
        <ele>150.051784</ele>
        <time>2026-09-05T11:00:00.396Z</time>
      </trkpt>
      <trkpt lat="52.076607" lon="22.326341">
        <ele>149.960795</ele>
        <time>2026-09-05T11:00:01.282Z</time>
      </trkpt>
      <trkpt lat="52.076672" lon="22.326481">
        <ele>149.853453</ele>
        <time>2026-09-05T11:00:02.335Z</time>
      </trkpt>
      <trkpt lat="52.076930" lon="22.327063">
        <ele>149.414440</ele>
        <time>2026-09-05T11:00:06.823Z</time>
      </trkpt>
      <trkpt lat="52.078860" lon="22.330718">
        <ele>149.052611</ele>
        <time>2026-09-05T11:00:41.224Z</time>
      </trkpt>
      <trkpt lat="52.080131" lon="22.332959">
        <ele>149.171537</ele>
        <time>2026-09-05T11:01:03.860Z</time>
      </trkpt>
      <trkpt lat="52.080411" lon="22.333552">
        <ele>149.223706</ele>
        <time>2026-09-05T11:01:09.366Z</time>
      </trkpt>
      <trkpt lat="52.082338" lon="22.339209">
        <ele>150.812905</ele>
        <time>2026-09-05T11:02:02.095Z</time>
      </trkpt>
      <trkpt lat="52.082636" lon="22.339774">
        <ele>150.901780</ele>
        <time>2026-09-05T11:02:07.976Z</time>
      </trkpt>
      <trkpt lat="52.083935" lon="22.341291">
        <ele>151.482706</ele>
        <time>2026-09-05T11:02:27.347Z</time>
      </trkpt>
      <trkpt lat="52.085544" lon="22.341814">
        <ele>152.869417</ele>
        <time>2026-09-05T11:02:52.235Z</time>
      </trkpt>
      <trkpt lat="52.085956" lon="22.341932">
        <ele>153.348311</ele>
        <time>2026-09-05T11:02:58.882Z</time>
      </trkpt>
      <trkpt lat="52.087309" lon="22.342142">
        <ele>154.845912</ele>
        <time>2026-09-05T11:03:20.044Z</time>
      </trkpt>
      <trkpt lat="52.087430" lon="22.343707">
        <ele>155.757484</ele>
        <time>2026-09-05T11:03:34.553Z</time>
      </trkpt>
      <trkpt lat="52.087548" lon="22.344309">
        <ele>156.122662</ele>
        <time>2026-09-05T11:03:40.051Z</time>
      </trkpt>
      <trkpt lat="52.087720" lon="22.344987">
        <ele>156.446714</ele>
        <time>2026-09-05T11:03:46.329Z</time>
      </trkpt>
      <trkpt lat="52.087873" lon="22.345797">
        <ele>156.760202</ele>
        <time>2026-09-05T11:03:53.503Z</time>
      </trkpt>
      <trkpt lat="52.087854" lon="22.346578">
        <ele>157.049349</ele>
        <time>2026-09-05T11:04:00.127Z</time>
      </trkpt>
      <trkpt lat="52.087622" lon="22.348409">
        <ele>157.551765</ele>
        <time>2026-09-05T11:04:15.728Z</time>
      </trkpt>
      <trkpt lat="52.087317" lon="22.351979">
        <ele>157.798856</ele>
        <time>2026-09-05T11:04:43.513Z</time>
      </trkpt>
      <trkpt lat="52.087361" lon="22.353003">
        <ele>157.733942</ele>
        <time>2026-09-05T11:04:50.208Z</time>
      </trkpt>
      <trkpt lat="52.087414" lon="22.353574">
        <ele>157.646030</ele>
        <time>2026-09-05T11:04:53.840Z</time>
      </trkpt>
      <trkpt lat="52.087454" lon="22.353890">
        <ele>157.584723</ele>
        <time>2026-09-05T11:04:55.881Z</time>
      </trkpt>
      <trkpt lat="52.087735" lon="22.354924">
        <ele>157.369883</ele>
        <time>2026-09-05T11:05:03.180Z</time>
      </trkpt>
      <trkpt lat="52.088289" lon="22.356721">
        <ele>157.086565</ele>
        <time>2026-09-05T11:05:18.301Z</time>
      </trkpt>
      <trkpt lat="52.088565" lon="22.357488">
        <ele>157.010823</ele>
        <time>2026-09-05T11:05:24.901Z</time>
      </trkpt>
      <trkpt lat="52.088780" lon="22.357972">
        <ele>156.959931</ele>
        <time>2026-09-05T11:05:28.973Z</time>
      </trkpt>
      <trkpt lat="52.089171" lon="22.358826">
        <ele>156.783411</ele>
        <time>2026-09-05T11:05:35.751Z</time>
      </trkpt>
      <trkpt lat="52.089061" lon="22.358979">
        <ele>156.727642</ele>
        <time>2026-09-05T11:05:37.194Z</time>
      </trkpt>
      <trkpt lat="52.088842" lon="22.359258">
        <ele>156.620451</ele>
        <time>2026-09-05T11:05:40.023Z</time>
      </trkpt>
      <trkpt lat="52.088477" lon="22.359720">
        <ele>156.442235</ele>
        <time>2026-09-05T11:05:44.945Z</time>
      </trkpt>
      <trkpt lat="52.088401" lon="22.359849">
        <ele>156.399911</ele>
        <time>2026-09-05T11:05:46.155Z</time>
      </trkpt>
      <trkpt lat="52.088351" lon="22.360045">
        <ele>156.349653</ele>
        <time>2026-09-05T11:05:47.621Z</time>
      </trkpt>
      <trkpt lat="52.088095" lon="22.361707">
        <ele>156.444617</ele>
        <time>2026-09-05T11:06:00.769Z</time>
      </trkpt>
      <trkpt lat="52.087881" lon="22.362760">
        <ele>156.651223</ele>
        <time>2026-09-05T11:06:09.962Z</time>
      </trkpt>
      <trkpt lat="52.087574" lon="22.363997">
        <ele>156.883207</ele>
        <time>2026-09-05T11:06:20.324Z</time>
      </trkpt>
      <trkpt lat="52.086987" lon="22.366684">
        <ele>157.487658</ele>
        <time>2026-09-05T11:06:42.321Z</time>
      </trkpt>
      <trkpt lat="52.086850" lon="22.367171">
        <ele>157.695477</ele>
        <time>2026-09-05T11:06:47.103Z</time>
      </trkpt>
      <trkpt lat="52.086230" lon="22.367062">
        <ele>158.089254</ele>
        <time>2026-09-05T11:06:56.653Z</time>
      </trkpt>
      <trkpt lat="52.085258" lon="22.366808">
        <ele>157.894969</ele>
        <time>2026-09-05T11:07:10.055Z</time>
      </trkpt>
      <trkpt lat="52.085087" lon="22.366730">
        <ele>157.729505</ele>
        <time>2026-09-05T11:07:11.823Z</time>
      </trkpt>
      <trkpt lat="52.084806" lon="22.366470">
        <ele>157.428333</ele>
        <time>2026-09-05T11:07:14.820Z</time>
      </trkpt>
      <trkpt lat="52.083821" lon="22.365187">
        <ele>156.764084</ele>
        <time>2026-09-05T11:07:25.994Z</time>
      </trkpt>
      <trkpt lat="52.083708" lon="22.365275">
        <ele>156.779199</ele>
        <time>2026-09-05T11:07:27.670Z</time>
      </trkpt>
      <trkpt lat="52.079861" lon="22.370079">
        <ele>157.848158</ele>
        <time>2026-09-05T11:08:54.236Z</time>
      </trkpt>
      <trkpt lat="52.072201" lon="22.379496">
        <ele>153.676003</ele>
        <time>2026-09-05T11:11:17.364Z</time>
      </trkpt>
      <trkpt lat="52.071591" lon="22.380147">
        <ele>153.413537</ele>
        <time>2026-09-05T11:11:28.488Z</time>
      </trkpt>
      <trkpt lat="52.070333" lon="22.381682">
        <ele>152.912936</ele>
        <time>2026-09-05T11:11:52.623Z</time>
      </trkpt>
      <trkpt lat="52.069153" lon="22.382883">
        <ele>152.657133</ele>
        <time>2026-09-05T11:12:13.973Z</time>
      </trkpt>
      <trkpt lat="52.067933" lon="22.383935">
        <ele>152.571782</ele>
        <time>2026-09-05T11:12:36.628Z</time>
      </trkpt>
      <trkpt lat="52.066277" lon="22.385137">
        <ele>152.557990</ele>
        <time>2026-09-05T11:13:05.950Z</time>
      </trkpt>
      <trkpt lat="52.065755" lon="22.385317">
        <ele>152.518327</ele>
        <time>2026-09-05T11:13:14.374Z</time>
      </trkpt>
      <trkpt lat="52.064389" lon="22.386032">
        <ele>152.672266</ele>
        <time>2026-09-05T11:13:37.210Z</time>
      </trkpt>
      <trkpt lat="52.064285" lon="22.386075">
        <ele>152.716515</ele>
        <time>2026-09-05T11:13:38.981Z</time>
      </trkpt>
      <trkpt lat="52.062755" lon="22.386714">
        <ele>153.768216</ele>
        <time>2026-09-05T11:14:07.681Z</time>
      </trkpt>
      <trkpt lat="52.061348" lon="22.387118">
        <ele>155.709244</ele>
        <time>2026-09-05T11:14:38.002Z</time>
      </trkpt>
      <trkpt lat="52.060533" lon="22.387198">
        <ele>156.848908</ele>
        <time>2026-09-05T11:14:55.829Z</time>
      </trkpt>
      <trkpt lat="52.059531" lon="22.387305">
        <ele>158.114683</ele>
        <time>2026-09-05T11:15:12.126Z</time>
      </trkpt>
      <trkpt lat="52.059216" lon="22.387246">
        <ele>157.989430</ele>
        <time>2026-09-05T11:15:16.372Z</time>
      </trkpt>
      <trkpt lat="52.058616" lon="22.387221">
        <ele>157.752342</ele>
        <time>2026-09-05T11:15:22.863Z</time>
      </trkpt>
      <trkpt lat="52.057753" lon="22.387080">
        <ele>157.406269</ele>
        <time>2026-09-05T11:15:31.036Z</time>
      </trkpt>
      <trkpt lat="52.057365" lon="22.387000">
        <ele>157.229901</ele>
        <time>2026-09-05T11:15:34.832Z</time>
      </trkpt>
      <trkpt lat="52.057031" lon="22.386886">
        <ele>157.076004</ele>
        <time>2026-09-05T11:15:38.322Z</time>
      </trkpt>
      <trkpt lat="52.056431" lon="22.386802">
        <ele>156.804435</ele>
        <time>2026-09-05T11:15:45.163Z</time>
      </trkpt>
      <trkpt lat="52.054338" lon="22.386383">
        <ele>156.853076</ele>
        <time>2026-09-05T11:16:11.588Z</time>
      </trkpt>
      <trkpt lat="52.054272" lon="22.386370">
        <ele>156.862036</ele>
        <time>2026-09-05T11:16:12.344Z</time>
      </trkpt>
      <trkpt lat="52.054233" lon="22.386679">
        <ele>156.803976</ele>
        <time>2026-09-05T11:16:15.428Z</time>
      </trkpt>
      <trkpt lat="52.053788" lon="22.387712">
        <ele>156.520710</ele>
        <time>2026-09-05T11:16:27.330Z</time>
      </trkpt>
      <trkpt lat="52.052893" lon="22.389786">
        <ele>156.092844</ele>
        <time>2026-09-05T11:16:50.198Z</time>
      </trkpt>
      <trkpt lat="52.052700" lon="22.390127">
        <ele>156.045961</ele>
        <time>2026-09-05T11:16:54.550Z</time>
      </trkpt>
      <trkpt lat="52.052455" lon="22.390449">
        <ele>155.994140</ele>
        <time>2026-09-05T11:16:59.467Z</time>
      </trkpt>
      <trkpt lat="52.051574" lon="22.391435">
        <ele>156.499575</ele>
        <time>2026-09-05T11:17:18.019Z</time>
      </trkpt>
      <trkpt lat="52.051353" lon="22.391735">
        <ele>156.793802</ele>
        <time>2026-09-05T11:17:23.615Z</time>
      </trkpt>
      <trkpt lat="52.051208" lon="22.391992">
        <ele>157.013011</ele>
        <time>2026-09-05T11:17:27.918Z</time>
      </trkpt>
      <trkpt lat="52.050273" lon="22.394170">
        <ele>158.892089</ele>
        <time>2026-09-05T11:18:02.636Z</time>
      </trkpt>
      <trkpt lat="52.050105" lon="22.394617">
        <ele>159.295447</ele>
        <time>2026-09-05T11:18:09.162Z</time>
      </trkpt>
      <trkpt lat="52.050053" lon="22.394915">
        <ele>159.533954</ele>
        <time>2026-09-05T11:18:12.925Z</time>
      </trkpt>
      <trkpt lat="52.049802" lon="22.397418">
        <ele>160.602410</ele>
        <time>2026-09-05T11:18:41.317Z</time>
      </trkpt>
      <trkpt lat="52.049322" lon="22.399726">
        <ele>160.864136</ele>
        <time>2026-09-05T11:19:06.486Z</time>
      </trkpt>
      <trkpt lat="52.049274" lon="22.400160">
        <ele>160.849216</ele>
        <time>2026-09-05T11:19:09.509Z</time>
      </trkpt>
      <trkpt lat="52.049123" lon="22.400064">
        <ele>160.840296</ele>
        <time>2026-09-05T11:19:11.298Z</time>
      </trkpt>
      <trkpt lat="52.048684" lon="22.399850">
        <ele>160.815081</ele>
        <time>2026-09-05T11:19:16.229Z</time>
      </trkpt>
      <trkpt lat="52.048338" lon="22.399725">
        <ele>160.976575</ele>
        <time>2026-09-05T11:19:20.027Z</time>
      </trkpt>
      <trkpt lat="52.047832" lon="22.399850">
        <ele>161.227295</ele>
        <time>2026-09-05T11:19:26.163Z</time>
      </trkpt>
      <trkpt lat="52.047353" lon="22.399992">
        <ele>161.465812</ele>
        <time>2026-09-05T11:19:33.076Z</time>
      </trkpt>
      <trkpt lat="52.046017" lon="22.400388">
        <ele>161.838788</ele>
        <time>2026-09-05T11:19:55.076Z</time>
      </trkpt>
      <trkpt lat="52.040880" lon="22.401771">
        <ele>161.956253</ele>
        <time>2026-09-05T11:20:53.526Z</time>
      </trkpt>
      <trkpt lat="52.033246" lon="22.403727">
        <ele>163.022779</ele>
        <time>2026-09-05T11:22:29.505Z</time>
      </trkpt>
      <trkpt lat="52.032522" lon="22.403957">
        <ele>163.046389</ele>
        <time>2026-09-05T11:22:39.029Z</time>
      </trkpt>
      <trkpt lat="52.031909" lon="22.404153">
        <ele>162.753353</ele>
        <time>2026-09-05T11:22:45.886Z</time>
      </trkpt>
      <trkpt lat="52.031755" lon="22.404038">
        <ele>162.673861</ele>
        <time>2026-09-05T11:22:47.581Z</time>
      </trkpt>
      <trkpt lat="52.031435" lon="22.403165">
        <ele>162.380614</ele>
        <time>2026-09-05T11:22:53.714Z</time>
      </trkpt>
      <trkpt lat="52.031319" lon="22.402908">
        <ele>162.288633</ele>
        <time>2026-09-05T11:22:55.643Z</time>
      </trkpt>
      <trkpt lat="52.031178" lon="22.402929">
        <ele>162.274721</ele>
        <time>2026-09-05T11:22:57.044Z</time>
      </trkpt>
      <trkpt lat="52.029164" lon="22.404840">
        <ele>162.486821</ele>
        <time>2026-09-05T11:23:25.257Z</time>
      </trkpt>
      <trkpt lat="52.028146" lon="22.405651">
        <ele>163.054184</ele>
        <time>2026-09-05T11:23:41.741Z</time>
      </trkpt>
      <trkpt lat="52.027527" lon="22.406083">
        <ele>163.440719</ele>
        <time>2026-09-05T11:23:51.061Z</time>
      </trkpt>
      <trkpt lat="52.026341" lon="22.406910">
        <ele>164.129030</ele>
        <time>2026-09-05T11:24:08.362Z</time>
      </trkpt>
      <trkpt lat="52.025904" lon="22.407244">
        <ele>164.254764</ele>
        <time>2026-09-05T11:24:14.800Z</time>
      </trkpt>
      <trkpt lat="52.022322" lon="22.408945">
        <ele>164.614156</ele>
        <time>2026-09-05T11:25:00.690Z</time>
      </trkpt>
      <trkpt lat="52.020413" lon="22.409691">
        <ele>164.082104</ele>
        <time>2026-09-05T11:25:21.536Z</time>
      </trkpt>
      <trkpt lat="52.019699" lon="22.409968">
        <ele>163.849134</ele>
        <time>2026-09-05T11:25:29.388Z</time>
      </trkpt>
      <trkpt lat="52.015012" lon="22.411818">
        <ele>165.920548</ele>
        <time>2026-09-05T11:26:34.119Z</time>
      </trkpt>
      <trkpt lat="52.013458" lon="22.412386">
        <ele>166.668911</ele>
        <time>2026-09-05T11:26:54.776Z</time>
      </trkpt>
      <trkpt lat="52.013010" lon="22.412537">
        <ele>166.899140</ele>
        <time>2026-09-05T11:27:01.482Z</time>
      </trkpt>
      <trkpt lat="52.012846" lon="22.412615">
        <ele>166.985126</ele>
        <time>2026-09-05T11:27:04.024Z</time>
      </trkpt>
      <trkpt lat="52.012724" lon="22.412767">
        <ele>167.062487</ele>
        <time>2026-09-05T11:27:06.299Z</time>
      </trkpt>
      <trkpt lat="52.012690" lon="22.412894">
        <ele>167.105380</ele>
        <time>2026-09-05T11:27:07.557Z</time>
      </trkpt>
      <trkpt lat="52.011753" lon="22.419372">
        <ele>167.331333</ele>
        <time>2026-09-05T11:27:57.053Z</time>
      </trkpt>
      <trkpt lat="52.011687" lon="22.419671">
        <ele>167.247420</ele>
        <time>2026-09-05T11:27:59.139Z</time>
      </trkpt>
      <trkpt lat="52.010584" lon="22.418740">
        <ele>166.683715</ele>
        <time>2026-09-05T11:28:12.005Z</time>
      </trkpt>
      <trkpt lat="52.008559" lon="22.417033">
        <ele>164.958203</ele>
        <time>2026-09-05T11:28:35.346Z</time>
      </trkpt>
      <trkpt lat="52.008352" lon="22.416859">
        <ele>164.744892</ele>
        <time>2026-09-05T11:28:37.616Z</time>
      </trkpt>
      <trkpt lat="52.006526" lon="22.415318">
        <ele>162.937220</ele>
        <time>2026-09-05T11:28:57.718Z</time>
      </trkpt>
      <trkpt lat="52.002206" lon="22.411672">
        <ele>159.963861</ele>
        <time>2026-09-05T11:29:47.923Z</time>
      </trkpt>
      <trkpt lat="52.001363" lon="22.410956">
        <ele>159.922072</ele>
        <time>2026-09-05T11:29:59.197Z</time>
      </trkpt>
      <trkpt lat="52.001319" lon="22.410919">
        <ele>159.919896</ele>
        <time>2026-09-05T11:29:59.803Z</time>
      </trkpt>
      <trkpt lat="51.999874" lon="22.409692">
        <ele>161.295378</ele>
        <time>2026-09-05T11:30:23.770Z</time>
      </trkpt>
      <trkpt lat="51.999283" lon="22.409216">
        <ele>161.946046</ele>
        <time>2026-09-05T11:30:34.922Z</time>
      </trkpt>
      <trkpt lat="51.999121" lon="22.409085">
        <ele>162.121683</ele>
        <time>2026-09-05T11:30:38.001Z</time>
      </trkpt>
      <trkpt lat="51.999125" lon="22.408898">
        <ele>162.233490</ele>
        <time>2026-09-05T11:30:39.920Z</time>
      </trkpt>
      <trkpt lat="51.999305" lon="22.408738">
        <ele>162.432639</ele>
        <time>2026-09-05T11:30:43.232Z</time>
      </trkpt>
      <trkpt lat="51.999987" lon="22.408161">
        <ele>163.178963</ele>
        <time>2026-09-05T11:30:54.102Z</time>
      </trkpt>
      <trkpt lat="52.000191" lon="22.407953">
        <ele>163.412731</ele>
        <time>2026-09-05T11:30:57.236Z</time>
      </trkpt>
      <trkpt lat="52.000315" lon="22.407702">
        <ele>163.519622</ele>
        <time>2026-09-05T11:30:59.866Z</time>
      </trkpt>
      <trkpt lat="52.000989" lon="22.405340">
        <ele>164.235693</ele>
        <time>2026-09-05T11:31:21.546Z</time>
      </trkpt>
      <trkpt lat="52.002265" lon="22.400970">
        <ele>164.003480</ele>
        <time>2026-09-05T11:31:55.767Z</time>
      </trkpt>
      <trkpt lat="52.002339" lon="22.400487">
        <ele>163.963247</ele>
        <time>2026-09-05T11:31:59.260Z</time>
      </trkpt>
      <trkpt lat="52.002416" lon="22.398914">
        <ele>163.876847</ele>
        <time>2026-09-05T11:32:10.360Z</time>
      </trkpt>
      <trkpt lat="52.002422" lon="22.398781">
        <ele>163.871470</ele>
        <time>2026-09-05T11:32:11.267Z</time>
      </trkpt>
      <trkpt lat="52.002635" lon="22.394344">
        <ele>163.668014</ele>
        <time>2026-09-05T11:32:43.734Z</time>
      </trkpt>
      <trkpt lat="52.002850" lon="22.389869">
        <ele>162.943260</ele>
        <time>2026-09-05T11:33:13.186Z</time>
      </trkpt>
      <trkpt lat="52.002858" lon="22.389743">
        <ele>162.949157</ele>
        <time>2026-09-05T11:33:14.038Z</time>
      </trkpt>
      <trkpt lat="52.003267" lon="22.381609">
        <ele>163.757034</ele>
        <time>2026-09-05T11:34:18.111Z</time>
      </trkpt>
      <trkpt lat="52.003251" lon="22.381344">
        <ele>163.785706</ele>
        <time>2026-09-05T11:34:20.338Z</time>
      </trkpt>
      <trkpt lat="52.003190" lon="22.380991">
        <ele>163.825187</ele>
        <time>2026-09-05T11:34:23.314Z</time>
      </trkpt>
      <trkpt lat="52.003157" lon="22.380832">
        <ele>163.843256</ele>
        <time>2026-09-05T11:34:24.641Z</time>
      </trkpt>
      <trkpt lat="52.002927" lon="22.380250">
        <ele>163.917729</ele>
        <time>2026-09-05T11:34:29.935Z</time>
      </trkpt>
      <trkpt lat="52.002190" lon="22.378853">
        <ele>163.931336</ele>
        <time>2026-09-05T11:34:42.463Z</time>
      </trkpt>
      <trkpt lat="52.001624" lon="22.377783">
        <ele>163.876081</ele>
        <time>2026-09-05T11:34:52.385Z</time>
      </trkpt>
      <trkpt lat="52.001552" lon="22.377646">
        <ele>163.869025</ele>
        <time>2026-09-05T11:34:53.807Z</time>
      </trkpt>
      <trkpt lat="52.001006" lon="22.376617">
        <ele>164.277063</ele>
        <time>2026-09-05T11:35:05.198Z</time>
      </trkpt>
      <trkpt lat="52.000031" lon="22.374773">
        <ele>165.036900</ele>
        <time>2026-09-05T11:35:25.921Z</time>
      </trkpt>
      <trkpt lat="51.999962" lon="22.374507">
        <ele>165.122703</ele>
        <time>2026-09-05T11:35:28.254Z</time>
      </trkpt>
      <trkpt lat="51.999982" lon="22.374030">
        <ele>165.264824</ele>
        <time>2026-09-05T11:35:32.109Z</time>
      </trkpt>
      <trkpt lat="51.999876" lon="22.373730">
        <ele>165.367644</ele>
        <time>2026-09-05T11:35:34.899Z</time>
      </trkpt>
      <trkpt lat="51.997811" lon="22.369675">
        <ele>166.680917</ele>
        <time>2026-09-05T11:36:18.021Z</time>
      </trkpt>
      <trkpt lat="51.997655" lon="22.369414">
        <ele>166.745002</ele>
        <time>2026-09-05T11:36:20.822Z</time>
      </trkpt>
      <trkpt lat="51.997433" lon="22.369178">
        <ele>166.820924</ele>
        <time>2026-09-05T11:36:24.097Z</time>
      </trkpt>
      <trkpt lat="51.996816" lon="22.368890">
        <ele>166.994094</ele>
        <time>2026-09-05T11:36:31.916Z</time>
      </trkpt>
      <trkpt lat="51.996370" lon="22.368739">
        <ele>167.092198</ele>
        <time>2026-09-05T11:36:37.413Z</time>
      </trkpt>
      <trkpt lat="51.995904" lon="22.368501">
        <ele>167.197388</ele>
        <time>2026-09-05T11:36:43.480Z</time>
      </trkpt>
      <trkpt lat="51.992502" lon="22.366129">
        <ele>168.558859</ele>
        <time>2026-09-05T11:37:31.707Z</time>
      </trkpt>
      <trkpt lat="51.989847" lon="22.364371">
        <ele>170.519545</ele>
        <time>2026-09-05T11:38:12.161Z</time>
      </trkpt>
      <trkpt lat="51.989699" lon="22.364245">
        <ele>170.646725</ele>
        <time>2026-09-05T11:38:14.695Z</time>
      </trkpt>
      <trkpt lat="51.989629" lon="22.364134">
        <ele>170.721186</ele>
        <time>2026-09-05T11:38:16.214Z</time>
      </trkpt>
      <trkpt lat="51.989569" lon="22.363971">
        <ele>170.810187</ele>
        <time>2026-09-05T11:38:17.986Z</time>
      </trkpt>
      <trkpt lat="51.989508" lon="22.363502">
        <ele>171.034844</ele>
        <time>2026-09-05T11:38:22.439Z</time>
      </trkpt>
      <trkpt lat="51.989483" lon="22.363098">
        <ele>171.225141</ele>
        <time>2026-09-05T11:38:26.175Z</time>
      </trkpt>
      <trkpt lat="51.989851" lon="22.353469">
        <ele>173.806747</ele>
        <time>2026-09-05T11:39:44.152Z</time>
      </trkpt>
      <trkpt lat="51.989957" lon="22.350723">
        <ele>174.549919</ele>
        <time>2026-09-05T11:40:06.746Z</time>
      </trkpt>
      <trkpt lat="51.989920" lon="22.350487">
        <ele>174.597285</ele>
        <time>2026-09-05T11:40:08.868Z</time>
      </trkpt>
      <trkpt lat="51.989668" lon="22.349101">
        <ele>174.878369</ele>
        <time>2026-09-05T11:40:21.175Z</time>
      </trkpt>
      <trkpt lat="51.989629" lon="22.348568">
        <ele>174.982768</ele>
        <time>2026-09-05T11:40:25.494Z</time>
      </trkpt>
      <trkpt lat="51.989914" lon="22.342343">
        <ele>174.042054</ele>
        <time>2026-09-05T11:41:07.250Z</time>
      </trkpt>
      <trkpt lat="51.990116" lon="22.337894">
        <ele>173.941025</ele>
        <time>2026-09-05T11:41:41.252Z</time>
      </trkpt>
      <trkpt lat="51.990505" lon="22.329565">
        <ele>172.104951</ele>
        <time>2026-09-05T11:42:36.484Z</time>
      </trkpt>
      <trkpt lat="51.990557" lon="22.328799">
        <ele>171.906057</ele>
        <time>2026-09-05T11:42:41.632Z</time>
      </trkpt>
      <trkpt lat="51.990709" lon="22.327839">
        <ele>171.650232</ele>
        <time>2026-09-05T11:42:48.256Z</time>
      </trkpt>
      <trkpt lat="51.990733" lon="22.327551">
        <ele>171.572876</ele>
        <time>2026-09-05T11:42:50.185Z</time>
      </trkpt>
      <trkpt lat="51.990729" lon="22.327342">
        <ele>171.500882</ele>
        <time>2026-09-05T11:42:51.567Z</time>
      </trkpt>
      <trkpt lat="51.990642" lon="22.326998">
        <ele>171.372842</ele>
        <time>2026-09-05T11:42:53.991Z</time>
      </trkpt>
      <trkpt lat="51.990580" lon="22.326872">
        <ele>171.317311</ele>
        <time>2026-09-05T11:42:55.037Z</time>
      </trkpt>
      <trkpt lat="51.989454" lon="22.325549">
        <ele>170.559925</ele>
        <time>2026-09-05T11:43:09.409Z</time>
      </trkpt>
      <trkpt lat="51.989368" lon="22.325394">
        <ele>170.526994</ele>
        <time>2026-09-05T11:43:10.771Z</time>
      </trkpt>
      <trkpt lat="51.989281" lon="22.325205">
        <ele>170.489748</ele>
        <time>2026-09-05T11:43:12.319Z</time>
      </trkpt>
      <trkpt lat="51.989238" lon="22.324917">
        <ele>170.442973</ele>
        <time>2026-09-05T11:43:14.262Z</time>
      </trkpt>
      <trkpt lat="51.989285" lon="22.324334">
        <ele>170.350165</ele>
        <time>2026-09-05T11:43:18.167Z</time>
      </trkpt>
      <trkpt lat="51.989357" lon="22.323715">
        <ele>170.250733</ele>
        <time>2026-09-05T11:43:22.510Z</time>
      </trkpt>
      <trkpt lat="51.989498" lon="22.322491">
        <ele>170.056888</ele>
        <time>2026-09-05T11:43:32.094Z</time>
      </trkpt>
      <trkpt lat="51.989716" lon="22.320625">
        <ele>169.770308</ele>
        <time>2026-09-05T11:43:45.623Z</time>
      </trkpt>
      <trkpt lat="51.989936" lon="22.318742">
        <ele>169.051755</ele>
        <time>2026-09-05T11:43:57.250Z</time>
      </trkpt>
      <trkpt lat="51.989982" lon="22.318348">
        <ele>168.857149</ele>
        <time>2026-09-05T11:43:59.608Z</time>
      </trkpt>
      <trkpt lat="51.990138" lon="22.316997">
        <ele>168.259826</ele>
        <time>2026-09-05T11:44:08.357Z</time>
      </trkpt>
      <trkpt lat="51.990326" lon="22.315380">
        <ele>168.288110</ele>
        <time>2026-09-05T11:44:19.779Z</time>
      </trkpt>
      <trkpt lat="51.990419" lon="22.314588">
        <ele>168.301968</ele>
        <time>2026-09-05T11:44:26.635Z</time>
      </trkpt>
      <trkpt lat="51.990556" lon="22.313441">
        <ele>168.501734</ele>
        <time>2026-09-05T11:44:36.514Z</time>
      </trkpt>
      <trkpt lat="51.990868" lon="22.310821">
        <ele>168.800009</ele>
        <time>2026-09-05T11:44:57.724Z</time>
      </trkpt>
      <trkpt lat="51.991092" lon="22.308944">
        <ele>168.199316</ele>
        <time>2026-09-05T11:45:09.936Z</time>
      </trkpt>
      <trkpt lat="51.991227" lon="22.307813">
        <ele>167.803789</ele>
        <time>2026-09-05T11:45:16.743Z</time>
      </trkpt>
      <trkpt lat="51.991236" lon="22.307735">
        <ele>167.775201</ele>
        <time>2026-09-05T11:45:17.226Z</time>
      </trkpt>
      <trkpt lat="51.991233" lon="22.307469">
        <ele>167.679359</ele>
        <time>2026-09-05T11:45:18.817Z</time>
      </trkpt>
      <trkpt lat="51.991241" lon="22.307331">
        <ele>167.629426</ele>
        <time>2026-09-05T11:45:19.644Z</time>
      </trkpt>
      <trkpt lat="51.991234" lon="22.307161">
        <ele>167.568048</ele>
        <time>2026-09-05T11:45:20.685Z</time>
      </trkpt>
      <trkpt lat="51.991278" lon="22.307010">
        <ele>167.507868</ele>
        <time>2026-09-05T11:45:21.713Z</time>
      </trkpt>
      <trkpt lat="51.991249" lon="22.306861">
        <ele>167.451574</ele>
        <time>2026-09-05T11:45:22.683Z</time>
      </trkpt>
      <trkpt lat="51.991282" lon="22.306737">
        <ele>167.402911</ele>
        <time>2026-09-05T11:45:23.539Z</time>
      </trkpt>
      <trkpt lat="51.991310" lon="22.306555">
        <ele>167.335331</ele>
        <time>2026-09-05T11:45:24.754Z</time>
      </trkpt>
      <trkpt lat="51.991469" lon="22.306169">
        <ele>167.168034</ele>
        <time>2026-09-05T11:45:27.876Z</time>
      </trkpt>
      <trkpt lat="51.991506" lon="22.306050">
        <ele>167.120010</ele>
        <time>2026-09-05T11:45:28.854Z</time>
      </trkpt>
      <trkpt lat="51.992556" lon="22.302090">
        <ele>168.050902</ele>
        <time>2026-09-05T11:46:04.214Z</time>
      </trkpt>
      <trkpt lat="51.992632" lon="22.301805">
        <ele>168.130523</ele>
        <time>2026-09-05T11:46:06.818Z</time>
      </trkpt>
      <trkpt lat="51.993712" lon="22.297905">
        <ele>168.970344</ele>
        <time>2026-09-05T11:46:41.146Z</time>
      </trkpt>
      <trkpt lat="51.993774" lon="22.297675">
        <ele>168.957905</ele>
        <time>2026-09-05T11:46:43.073Z</time>
      </trkpt>
      <trkpt lat="51.993757" lon="22.297615">
        <ele>168.930499</ele>
        <time>2026-09-05T11:46:43.557Z</time>
      </trkpt>
      <trkpt lat="51.993640" lon="22.297528">
        <ele>168.843783</ele>
        <time>2026-09-05T11:46:45.069Z</time>
      </trkpt>
      <trkpt lat="51.992956" lon="22.297187">
        <ele>168.361613</ele>
        <time>2026-09-05T11:46:52.675Z</time>
      </trkpt>
      <trkpt lat="51.992186" lon="22.296804">
        <ele>167.818925</ele>
        <time>2026-09-05T11:47:00.381Z</time>
      </trkpt>
      <trkpt lat="51.992070" lon="22.296754">
        <ele>167.713533</ele>
        <time>2026-09-05T11:47:01.469Z</time>
      </trkpt>
      <trkpt lat="51.990231" lon="22.295850">
        <ele>166.123297</ele>
        <time>2026-09-05T11:47:19.766Z</time>
      </trkpt>
      <trkpt lat="51.988124" lon="22.294813">
        <ele>168.177798</ele>
        <time>2026-09-05T11:47:56.499Z</time>
      </trkpt>
      <trkpt lat="51.987525" lon="22.294520">
        <ele>168.614434</ele>
        <time>2026-09-05T11:48:05.792Z</time>
      </trkpt>
      <trkpt lat="51.987330" lon="22.294464">
        <ele>168.752649</ele>
        <time>2026-09-05T11:48:08.338Z</time>
      </trkpt>
      <trkpt lat="51.986160" lon="22.294394">
        <ele>168.387584</ele>
        <time>2026-09-05T11:48:20.652Z</time>
      </trkpt>
      <trkpt lat="51.984374" lon="22.293993">
        <ele>166.846092</ele>
        <time>2026-09-05T11:48:38.100Z</time>
      </trkpt>
      <trkpt lat="51.982217" lon="22.293524">
        <ele>165.737083</ele>
        <time>2026-09-05T11:49:00.042Z</time>
      </trkpt>
      <trkpt lat="51.982196" lon="22.293520">
        <ele>165.733864</ele>
        <time>2026-09-05T11:49:00.329Z</time>
      </trkpt>
      <trkpt lat="51.982147" lon="22.293510">
        <ele>165.726346</ele>
        <time>2026-09-05T11:49:01.012Z</time>
      </trkpt>
      <trkpt lat="51.982132" lon="22.293507">
        <ele>165.724045</ele>
        <time>2026-09-05T11:49:01.228Z</time>
      </trkpt>
      <trkpt lat="51.981189" lon="22.293315">
        <ele>166.009556</ele>
        <time>2026-09-05T11:49:15.598Z</time>
      </trkpt>
      <trkpt lat="51.980447" lon="22.293133">
        <ele>166.683935</ele>
        <time>2026-09-05T11:49:27.513Z</time>
      </trkpt>
      <trkpt lat="51.980283" lon="22.293045">
        <ele>166.839158</ele>
        <time>2026-09-05T11:49:29.941Z</time>
      </trkpt>
      <trkpt lat="51.978901" lon="22.291957">
        <ele>167.707250</ele>
        <time>2026-09-05T11:49:50.254Z</time>
      </trkpt>
      <trkpt lat="51.977440" lon="22.290783">
        <ele>168.469749</ele>
        <time>2026-09-05T11:50:11.782Z</time>
      </trkpt>
      <trkpt lat="51.977298" lon="22.290672">
        <ele>168.549566</ele>
        <time>2026-09-05T11:50:13.900Z</time>
      </trkpt>
      <trkpt lat="51.973677" lon="22.287887">
        <ele>170.113302</ele>
        <time>2026-09-05T11:51:08.662Z</time>
      </trkpt>
      <trkpt lat="51.970638" lon="22.285551">
        <ele>166.573644</ele>
        <time>2026-09-05T11:51:39.873Z</time>
      </trkpt>
      <trkpt lat="51.963213" lon="22.279855">
        <ele>165.759788</ele>
        <time>2026-09-05T11:53:16.773Z</time>
      </trkpt>
      <trkpt lat="51.959289" lon="22.276795">
        <ele>164.912982</ele>
        <time>2026-09-05T11:54:06.850Z</time>
      </trkpt>
      <trkpt lat="51.958933" lon="22.276580">
        <ele>164.747785</ele>
        <time>2026-09-05T11:54:10.679Z</time>
      </trkpt>
      <trkpt lat="51.957273" lon="22.275683">
        <ele>162.983421</ele>
        <time>2026-09-05T11:54:27.293Z</time>
      </trkpt>
      <trkpt lat="51.956073" lon="22.275195">
        <ele>162.322452</ele>
        <time>2026-09-05T11:54:39.982Z</time>
      </trkpt>
      <trkpt lat="51.955524" lon="22.275124">
        <ele>162.108550</ele>
        <time>2026-09-05T11:54:46.361Z</time>
      </trkpt>
      <trkpt lat="51.955255" lon="22.275138">
        <ele>162.004019</ele>
        <time>2026-09-05T11:54:49.627Z</time>
      </trkpt>
      <trkpt lat="51.954983" lon="22.275238">
        <ele>162.092824</ele>
        <time>2026-09-05T11:54:53.154Z</time>
      </trkpt>
      <trkpt lat="51.954503" lon="22.275502">
        <ele>162.254472</ele>
        <time>2026-09-05T11:54:59.747Z</time>
      </trkpt>
      <trkpt lat="51.954349" lon="22.275548">
        <ele>162.304414</ele>
        <time>2026-09-05T11:55:01.777Z</time>
      </trkpt>
      <trkpt lat="51.954195" lon="22.275541">
        <ele>162.353551</ele>
        <time>2026-09-05T11:55:03.766Z</time>
      </trkpt>
      <trkpt lat="51.953631" lon="22.275402">
        <ele>162.535498</ele>
        <time>2026-09-05T11:55:11.168Z</time>
      </trkpt>
      <trkpt lat="51.952424" lon="22.274678">
        <ele>163.273474</ele>
        <time>2026-09-05T11:55:28.222Z</time>
      </trkpt>
      <trkpt lat="51.952155" lon="22.274099">
        <ele>163.542754</ele>
        <time>2026-09-05T11:55:34.714Z</time>
      </trkpt>
      <trkpt lat="51.951428" lon="22.272278">
        <ele>164.567749</ele>
        <time>2026-09-05T11:55:54.971Z</time>
      </trkpt>
      <trkpt lat="51.951358" lon="22.272148">
        <ele>164.652313</ele>
        <time>2026-09-05T11:55:56.535Z</time>
      </trkpt>
      <trkpt lat="51.951121" lon="22.271993">
        <ele>164.855415</ele>
        <time>2026-09-05T11:56:00.160Z</time>
      </trkpt>
      <trkpt lat="51.947534" lon="22.271362">
        <ele>165.924786</ele>
        <time>2026-09-05T11:56:45.330Z</time>
      </trkpt>
      <trkpt lat="51.945110" lon="22.270925">
        <ele>167.063849</ele>
        <time>2026-09-05T11:57:18.779Z</time>
      </trkpt>
      <trkpt lat="51.944049" lon="22.270730">
        <ele>167.316298</ele>
        <time>2026-09-05T11:57:32.714Z</time>
      </trkpt>
      <trkpt lat="51.943760" lon="22.270743">
        <ele>167.384651</ele>
        <time>2026-09-05T11:57:35.949Z</time>
      </trkpt>
      <trkpt lat="51.943588" lon="22.270849">
        <ele>167.348731</ele>
        <time>2026-09-05T11:57:37.935Z</time>
      </trkpt>
      <trkpt lat="51.942777" lon="22.271560">
        <ele>166.810475</ele>
        <time>2026-09-05T11:57:47.367Z</time>
      </trkpt>
      <trkpt lat="51.942167" lon="22.272348">
        <ele>166.355171</ele>
        <time>2026-09-05T11:57:55.184Z</time>
      </trkpt>
      <trkpt lat="51.941189" lon="22.274142">
        <ele>166.177659</ele>
        <time>2026-09-05T11:58:11.750Z</time>
      </trkpt>
      <trkpt lat="51.941018" lon="22.274359">
        <ele>166.151567</ele>
        <time>2026-09-05T11:58:14.637Z</time>
      </trkpt>
      <trkpt lat="51.940843" lon="22.274454">
        <ele>166.190762</ele>
        <time>2026-09-05T11:58:17.169Z</time>
      </trkpt>
      <trkpt lat="51.940733" lon="22.274431">
        <ele>166.263419</ele>
        <time>2026-09-05T11:58:18.719Z</time>
      </trkpt>
      <trkpt lat="51.940495" lon="22.274276">
        <ele>166.431430</ele>
        <time>2026-09-05T11:58:22.400Z</time>
      </trkpt>
      <trkpt lat="51.938210" lon="22.272531">
        <ele>167.780462</ele>
        <time>2026-09-05T11:58:58.412Z</time>
      </trkpt>
      <trkpt lat="51.934490" lon="22.269679">
        <ele>167.289487</ele>
        <time>2026-09-05T11:59:44.309Z</time>
      </trkpt>
      <trkpt lat="51.932582" lon="22.268198">
        <ele>167.186383</ele>
        <time>2026-09-05T12:00:09.953Z</time>
      </trkpt>
      <trkpt lat="51.930531" lon="22.266582">
        <ele>166.087920</ele>
        <time>2026-09-05T12:00:33.619Z</time>
      </trkpt>
      <trkpt lat="51.930024" lon="22.266074">
        <ele>165.796752</ele>
        <time>2026-09-05T12:00:39.943Z</time>
      </trkpt>
      <trkpt lat="51.929925" lon="22.265986">
        <ele>165.741594</ele>
        <time>2026-09-05T12:00:41.199Z</time>
      </trkpt>
      <trkpt lat="51.929567" lon="22.265724">
        <ele>165.549701</ele>
        <time>2026-09-05T12:00:45.703Z</time>
      </trkpt>
      <trkpt lat="51.928270" lon="22.264957">
        <ele>164.938258</ele>
        <time>2026-09-05T12:01:00.513Z</time>
      </trkpt>
      <trkpt lat="51.928224" lon="22.264947">
        <ele>164.917712</ele>
        <time>2026-09-05T12:01:00.992Z</time>
      </trkpt>
      <trkpt lat="51.928227" lon="22.265641">
        <ele>164.733861</ele>
        <time>2026-09-05T12:01:05.363Z</time>
      </trkpt>
      <trkpt lat="51.928224" lon="22.268256">
        <ele>164.201921</ele>
        <time>2026-09-05T12:01:22.580Z</time>
      </trkpt>
      <trkpt lat="51.928214" lon="22.268655">
        <ele>164.212464</ele>
        <time>2026-09-05T12:01:25.765Z</time>
      </trkpt>
      <trkpt lat="51.928206" lon="22.268939">
        <ele>164.301192</ele>
        <time>2026-09-05T12:01:28.230Z</time>
      </trkpt>
      <trkpt lat="51.928181" lon="22.269917">
        <ele>164.606686</ele>
        <time>2026-09-05T12:01:37.076Z</time>
      </trkpt>
      <trkpt lat="51.928173" lon="22.270327">
        <ele>164.734710</ele>
        <time>2026-09-05T12:01:40.739Z</time>
      </trkpt>
      <trkpt lat="51.928175" lon="22.270941">
        <ele>164.926341</ele>
        <time>2026-09-05T12:01:46.190Z</time>
      </trkpt>
      <trkpt lat="51.928252" lon="22.271469">
        <ele>165.056405</ele>
        <time>2026-09-05T12:01:50.690Z</time>
      </trkpt>
      <trkpt lat="51.928887" lon="22.274491">
        <ele>164.628978</ele>
        <time>2026-09-05T12:02:12.327Z</time>
      </trkpt>
      <trkpt lat="51.928937" lon="22.275140">
        <ele>164.465438</ele>
        <time>2026-09-05T12:02:16.528Z</time>
      </trkpt>
      <trkpt lat="51.928967" lon="22.277193">
        <ele>163.980689</ele>
        <time>2026-09-05T12:02:30.133Z</time>
      </trkpt>
      <trkpt lat="51.928989" lon="22.278838">
        <ele>163.869057</ele>
        <time>2026-09-05T12:02:41.936Z</time>
      </trkpt>
      <trkpt lat="51.929018" lon="22.280989">
        <ele>163.717337</ele>
        <time>2026-09-05T12:02:57.707Z</time>
      </trkpt>
      <trkpt lat="51.929029" lon="22.281772">
        <ele>163.659860</ele>
        <time>2026-09-05T12:03:02.881Z</time>
      </trkpt>
      <trkpt lat="51.929034" lon="22.282058">
        <ele>163.638863</ele>
        <time>2026-09-05T12:03:04.956Z</time>
      </trkpt>
      <trkpt lat="51.929048" lon="22.283218">
        <ele>163.582145</ele>
        <time>2026-09-05T12:03:13.273Z</time>
      </trkpt>
      <trkpt lat="51.929056" lon="22.283714">
        <ele>163.585980</ele>
        <time>2026-09-05T12:03:16.662Z</time>
      </trkpt>
      <trkpt lat="51.929116" lon="22.287773">
        <ele>164.026589</ele>
        <time>2026-09-05T12:03:47.172Z</time>
      </trkpt>
      <trkpt lat="51.929104" lon="22.288127">
        <ele>164.102239</ele>
        <time>2026-09-05T12:03:49.888Z</time>
      </trkpt>
      <trkpt lat="51.929095" lon="22.288232">
        <ele>164.124860</ele>
        <time>2026-09-05T12:03:50.817Z</time>
      </trkpt>
      <trkpt lat="51.928889" lon="22.289743">
        <ele>164.922135</ele>
        <time>2026-09-05T12:04:05.543Z</time>
      </trkpt>
      <trkpt lat="51.928754" lon="22.290726">
        <ele>165.572129</ele>
        <time>2026-09-05T12:04:15.199Z</time>
      </trkpt>
      <trkpt lat="51.928681" lon="22.291264">
        <ele>165.927675</ele>
        <time>2026-09-05T12:04:20.450Z</time>
      </trkpt>
      <trkpt lat="51.928543" lon="22.292283">
        <ele>166.371596</ele>
        <time>2026-09-05T12:04:30.047Z</time>
      </trkpt>
      <trkpt lat="51.928512" lon="22.292506">
        <ele>166.450619</ele>
        <time>2026-09-05T12:04:31.908Z</time>
      </trkpt>
      <trkpt lat="51.928230" lon="22.294586">
        <ele>167.140573</ele>
        <time>2026-09-05T12:04:49.114Z</time>
      </trkpt>
      <trkpt lat="51.927304" lon="22.301407">
        <ele>167.524252</ele>
        <time>2026-09-05T12:05:42.632Z</time>
      </trkpt>
      <trkpt lat="51.927224" lon="22.302000">
        <ele>167.417428</ele>
        <time>2026-09-05T12:05:46.459Z</time>
      </trkpt>
      <trkpt lat="51.927145" lon="22.301971">
        <ele>167.394313</ele>
        <time>2026-09-05T12:05:47.267Z</time>
      </trkpt>
      <trkpt lat="51.926695" lon="22.301815">
        <ele>167.262993</ele>
        <time>2026-09-05T12:05:51.835Z</time>
      </trkpt>
      <trkpt lat="51.917012" lon="22.298408">
        <ele>162.802206</ele>
        <time>2026-09-05T12:07:37.021Z</time>
      </trkpt>
      <trkpt lat="51.911467" lon="22.296479">
        <ele>163.259793</ele>
        <time>2026-09-05T12:08:47.725Z</time>
      </trkpt>
      <trkpt lat="51.909719" lon="22.309430">
        <ele>162.294199</ele>
        <time>2026-09-05T12:10:21.597Z</time>
      </trkpt>
      <trkpt lat="51.909530" lon="22.310794">
        <ele>162.158641</ele>
        <time>2026-09-05T12:10:31.355Z</time>
      </trkpt>
      <trkpt lat="51.907758" lon="22.310212">
        <ele>161.881828</ele>
        <time>2026-09-05T12:10:51.839Z</time>
      </trkpt>
      <trkpt lat="51.907505" lon="22.310244">
        <ele>161.843497</ele>
        <time>2026-09-05T12:10:54.848Z</time>
      </trkpt>
      <trkpt lat="51.907272" lon="22.310407">
        <ele>161.805166</ele>
        <time>2026-09-05T12:10:57.868Z</time>
      </trkpt>
      <trkpt lat="51.904235" lon="22.314337">
        <ele>161.587694</ele>
        <time>2026-09-05T12:11:43.117Z</time>
      </trkpt>
      <trkpt lat="51.903997" lon="22.314548">
        <ele>161.548154</ele>
        <time>2026-09-05T12:11:46.360Z</time>
      </trkpt>
      <trkpt lat="51.903649" lon="22.314674">
        <ele>161.496182</ele>
        <time>2026-09-05T12:11:50.546Z</time>
      </trkpt>
      <trkpt lat="51.903383" lon="22.314752">
        <ele>161.456782</ele>
        <time>2026-09-05T12:11:53.668Z</time>
      </trkpt>
      <trkpt lat="51.903341" lon="22.314765">
        <ele>161.450550</ele>
        <time>2026-09-05T12:11:54.147Z</time>
      </trkpt>
      <trkpt lat="51.901575" lon="22.315373">
        <ele>161.391687</ele>
        <time>2026-09-05T12:12:14.351Z</time>
      </trkpt>
      <trkpt lat="51.899859" lon="22.315747">
        <ele>161.992387</ele>
        <time>2026-09-05T12:12:37.624Z</time>
      </trkpt>
      <trkpt lat="51.899897" lon="22.315927">
        <ele>162.055402</ele>
        <time>2026-09-05T12:12:39.263Z</time>
      </trkpt>
      <trkpt lat="51.899968" lon="22.316365">
        <ele>162.205406</ele>
        <time>2026-09-05T12:12:43.130Z</time>
      </trkpt>
      <trkpt lat="51.900003" lon="22.316837">
        <ele>162.362873</ele>
        <time>2026-09-05T12:12:47.188Z</time>
      </trkpt>
      <trkpt lat="51.900016" lon="22.318390">
        <ele>162.700081</ele>
        <time>2026-09-05T12:13:00.090Z</time>
      </trkpt>
      <trkpt lat="51.900019" lon="22.318766">
        <ele>162.780395</ele>
        <time>2026-09-05T12:13:03.102Z</time>
      </trkpt>
      <trkpt lat="51.900022" lon="22.319037">
        <ele>162.838285</ele>
        <time>2026-09-05T12:13:05.217Z</time>
      </trkpt>
      <trkpt lat="51.900028" lon="22.319718">
        <ele>162.983749</ele>
        <time>2026-09-05T12:13:10.506Z</time>
      </trkpt>
      <trkpt lat="51.900034" lon="22.320728">
        <ele>162.752014</ele>
        <time>2026-09-05T12:13:17.650Z</time>
      </trkpt>
      <trkpt lat="51.900036" lon="22.320884">
        <ele>162.710244</ele>
        <time>2026-09-05T12:13:18.734Z</time>
      </trkpt>
      <trkpt lat="51.900050" lon="22.322781">
        <ele>162.187020</ele>
        <time>2026-09-05T12:13:30.914Z</time>
      </trkpt>
      <trkpt lat="51.900056" lon="22.323521">
        <ele>161.821486</ele>
        <time>2026-09-05T12:13:35.314Z</time>
      </trkpt>
      <trkpt lat="51.900070" lon="22.325336">
        <ele>160.924946</ele>
        <time>2026-09-05T12:13:46.148Z</time>
      </trkpt>
      <trkpt lat="51.900074" lon="22.325775">
        <ele>160.860245</ele>
        <time>2026-09-05T12:13:49.099Z</time>
      </trkpt>
      <trkpt lat="51.900075" lon="22.325910">
        <ele>160.933109</ele>
        <time>2026-09-05T12:13:50.170Z</time>
      </trkpt>
      <trkpt lat="51.900076" lon="22.326252">
        <ele>161.117686</ele>
        <time>2026-09-05T12:13:53.221Z</time>
      </trkpt>
      <trkpt lat="51.900086" lon="22.327586">
        <ele>161.837691</ele>
        <time>2026-09-05T12:14:06.093Z</time>
      </trkpt>
      <trkpt lat="51.900087" lon="22.327690">
        <ele>161.893826</ele>
        <time>2026-09-05T12:14:07.233Z</time>
      </trkpt>
      <trkpt lat="51.900088" lon="22.327884">
        <ele>161.998530</ele>
        <time>2026-09-05T12:14:09.189Z</time>
      </trkpt>
      <trkpt lat="51.900033" lon="22.327898">
        <ele>162.047226</ele>
        <time>2026-09-05T12:14:10.109Z</time>
      </trkpt>
      <trkpt lat="51.899958" lon="22.327962">
        <ele>162.121363</ele>
        <time>2026-09-05T12:14:11.507Z</time>
      </trkpt>
      <trkpt lat="51.899860" lon="22.328114">
        <ele>162.240009</ele>
        <time>2026-09-05T12:14:13.718Z</time>
      </trkpt>
      <trkpt lat="51.899670" lon="22.328620">
        <ele>162.446276</ele>
        <time>2026-09-05T12:14:19.594Z</time>
      </trkpt>
      <trkpt lat="51.899437" lon="22.329579">
        <ele>162.695830</ele>
        <time>2026-09-05T12:14:28.082Z</time>
      </trkpt>
      <trkpt lat="51.899180" lon="22.330791">
        <ele>163.006138</ele>
        <time>2026-09-05T12:14:37.184Z</time>
      </trkpt>
      <trkpt lat="51.898987" lon="22.331422">
        <ele>163.121215</ele>
        <time>2026-09-05T12:14:42.463Z</time>
      </trkpt>
      <trkpt lat="51.898733" lon="22.332128">
        <ele>163.225214</ele>
        <time>2026-09-05T12:14:48.880Z</time>
      </trkpt>
      <trkpt lat="51.898437" lon="22.332836">
        <ele>163.334046</ele>
        <time>2026-09-05T12:14:55.718Z</time>
      </trkpt>
      <trkpt lat="51.898121" lon="22.333508">
        <ele>163.432426</ele>
        <time>2026-09-05T12:15:02.406Z</time>
      </trkpt>
      <trkpt lat="51.897377" lon="22.334927">
        <ele>163.469476</ele>
        <time>2026-09-05T12:15:16.494Z</time>
      </trkpt>
      <trkpt lat="51.897081" lon="22.335587">
        <ele>163.485711</ele>
        <time>2026-09-05T12:15:22.457Z</time>
      </trkpt>
      <trkpt lat="51.896447" lon="22.337345">
        <ele>162.714355</ele>
        <time>2026-09-05T12:15:36.058Z</time>
      </trkpt>
      <trkpt lat="51.895767" lon="22.338972">
        <ele>161.900268</ele>
        <time>2026-09-05T12:15:47.519Z</time>
      </trkpt>
      <trkpt lat="51.895684" lon="22.339119">
        <ele>161.816985</ele>
        <time>2026-09-05T12:15:48.681Z</time>
      </trkpt>
      <trkpt lat="51.895485" lon="22.339373">
        <ele>161.645402</ele>
        <time>2026-09-05T12:15:51.096Z</time>
      </trkpt>
      <trkpt lat="51.894258" lon="22.340547">
        <ele>161.470512</ele>
        <time>2026-09-05T12:16:07.562Z</time>
      </trkpt>
      <trkpt lat="51.894114" lon="22.340752">
        <ele>161.602120</ele>
        <time>2026-09-05T12:16:10.473Z</time>
      </trkpt>
      <trkpt lat="51.893968" lon="22.341012">
        <ele>161.751069</ele>
        <time>2026-09-05T12:16:13.802Z</time>
      </trkpt>
      <trkpt lat="51.893481" lon="22.342231">
        <ele>162.362398</ele>
        <time>2026-09-05T12:16:27.727Z</time>
      </trkpt>
      <trkpt lat="51.892909" lon="22.343428">
        <ele>162.960455</ele>
        <time>2026-09-05T12:16:41.058Z</time>
      </trkpt>
      <trkpt lat="51.892803" lon="22.343588">
        <ele>163.053187</ele>
        <time>2026-09-05T12:16:43.004Z</time>
      </trkpt>
      <trkpt lat="51.892750" lon="22.343613">
        <ele>163.088522</ele>
        <time>2026-09-05T12:16:43.728Z</time>
      </trkpt>
      <trkpt lat="51.892635" lon="22.343563">
        <ele>163.164741</ele>
        <time>2026-09-05T12:16:45.301Z</time>
      </trkpt>
      <trkpt lat="51.891192" lon="22.342024">
        <ele>163.632266</ele>
        <time>2026-09-05T12:17:07.666Z</time>
      </trkpt>
      <trkpt lat="51.891098" lon="22.342278">
        <ele>163.657243</ele>
        <time>2026-09-05T12:17:09.738Z</time>
      </trkpt>
      <trkpt lat="51.890416" lon="22.345561">
        <ele>163.048666</ele>
        <time>2026-09-05T12:17:32.765Z</time>
      </trkpt>
      <trkpt lat="51.890375" lon="22.345946">
        <ele>162.911325</ele>
        <time>2026-09-05T12:17:35.560Z</time>
      </trkpt>
      <trkpt lat="51.890398" lon="22.346087">
        <ele>162.859360</ele>
        <time>2026-09-05T12:17:36.582Z</time>
      </trkpt>
      <trkpt lat="51.890444" lon="22.346155">
        <ele>162.823411</ele>
        <time>2026-09-05T12:17:37.307Z</time>
      </trkpt>
      <trkpt lat="51.890498" lon="22.346208">
        <ele>162.786962</ele>
        <time>2026-09-05T12:17:38.022Z</time>
      </trkpt>
      <trkpt lat="51.891355" lon="22.346575">
        <ele>162.275204</ele>
        <time>2026-09-05T12:17:47.923Z</time>
      </trkpt>
      <trkpt lat="51.891407" lon="22.346683">
        <ele>162.226398</ele>
        <time>2026-09-05T12:17:48.779Z</time>
      </trkpt>
      <trkpt lat="51.891412" lon="22.346796">
        <ele>162.186033</ele>
        <time>2026-09-05T12:17:49.487Z</time>
      </trkpt>
      <trkpt lat="51.890987" lon="22.350595">
        <ele>159.077584</ele>
        <time>2026-09-05T12:18:11.345Z</time>
      </trkpt>
      <trkpt lat="51.890754" lon="22.351184">
        <ele>158.729054</ele>
        <time>2026-09-05T12:18:15.150Z</time>
      </trkpt>
      <trkpt lat="51.890697" lon="22.351410">
        <ele>158.607427</ele>
        <time>2026-09-05T12:18:16.569Z</time>
      </trkpt>
      <trkpt lat="51.890665" lon="22.352518">
        <ele>158.054840</ele>
        <time>2026-09-05T12:18:23.739Z</time>
      </trkpt>
      <trkpt lat="51.890662" lon="22.352974">
        <ele>157.861663</ele>
        <time>2026-09-05T12:18:27.373Z</time>
      </trkpt>
      <trkpt lat="51.890618" lon="22.353632">
        <ele>158.113687</ele>
        <time>2026-09-05T12:18:33.657Z</time>
      </trkpt>
      <trkpt lat="51.890302" lon="22.353531">
        <ele>158.312415</ele>
        <time>2026-09-05T12:18:38.644Z</time>
      </trkpt>
      <trkpt lat="51.890021" lon="22.353522">
        <ele>158.485824</ele>
        <time>2026-09-05T12:18:42.948Z</time>
      </trkpt>
      <trkpt lat="51.889252" lon="22.353734">
        <ele>158.964912</ele>
        <time>2026-09-05T12:18:53.007Z</time>
      </trkpt>
      <trkpt lat="51.888898" lon="22.353782">
        <ele>159.137857</ele>
        <time>2026-09-05T12:18:57.363Z</time>
      </trkpt>
      <trkpt lat="51.888594" lon="22.353700">
        <ele>159.287893</ele>
        <time>2026-09-05T12:19:01.513Z</time>
      </trkpt>
      <trkpt lat="51.888534" lon="22.353947">
        <ele>159.367652</ele>
        <time>2026-09-05T12:19:03.936Z</time>
      </trkpt>
      <trkpt lat="51.888503" lon="22.354269">
        <ele>159.465575</ele>
        <time>2026-09-05T12:19:06.887Z</time>
      </trkpt>
      <trkpt lat="51.888494" lon="22.354549">
        <ele>159.549822</ele>
        <time>2026-09-05T12:19:09.417Z</time>
      </trkpt>
      <trkpt lat="51.888522" lon="22.355397">
        <ele>159.804990</ele>
        <time>2026-09-05T12:19:16.899Z</time>
      </trkpt>
      <trkpt lat="51.888517" lon="22.355617">
        <ele>159.816069</ele>
        <time>2026-09-05T12:19:18.775Z</time>
      </trkpt>
      <trkpt lat="51.887799" lon="22.362094">
        <ele>159.112993</ele>
        <time>2026-09-05T12:20:02.929Z</time>
      </trkpt>
      <trkpt lat="51.887741" lon="22.362634">
        <ele>159.286107</ele>
        <time>2026-09-05T12:20:07.446Z</time>
      </trkpt>
      <trkpt lat="51.887673" lon="22.363253">
        <ele>159.484680</ele>
        <time>2026-09-05T12:20:13.124Z</time>
      </trkpt>
      <trkpt lat="51.887371" lon="22.366026">
        <ele>160.622553</ele>
        <time>2026-09-05T12:20:40.440Z</time>
      </trkpt>
      <trkpt lat="51.886661" lon="22.372429">
        <ele>160.533507</ele>
        <time>2026-09-05T12:21:25.880Z</time>
      </trkpt>
      <trkpt lat="51.886397" lon="22.374846">
        <ele>160.911836</ele>
        <time>2026-09-05T12:21:45.044Z</time>
      </trkpt>
      <trkpt lat="51.886319" lon="22.375156">
        <ele>160.973082</ele>
        <time>2026-09-05T12:21:47.911Z</time>
      </trkpt>
      <trkpt lat="51.884714" lon="22.376834">
        <ele>161.771817</ele>
        <time>2026-09-05T12:22:13.580Z</time>
      </trkpt>
      <trkpt lat="51.884607" lon="22.376983">
        <ele>161.831979</ele>
        <time>2026-09-05T12:22:15.348Z</time>
      </trkpt>
      <trkpt lat="51.884523" lon="22.377178">
        <ele>161.851455</ele>
        <time>2026-09-05T12:22:17.180Z</time>
      </trkpt>
      <trkpt lat="51.883406" lon="22.381525">
        <ele>161.814607</ele>
        <time>2026-09-05T12:22:52.338Z</time>
      </trkpt>
      <trkpt lat="51.883305" lon="22.382046">
        <ele>161.746229</ele>
        <time>2026-09-05T12:22:55.890Z</time>
      </trkpt>
      <trkpt lat="51.882931" lon="22.384632">
        <ele>160.679704</ele>
        <time>2026-09-05T12:23:11.821Z</time>
      </trkpt>
      <trkpt lat="51.880626" lon="22.384638">
        <ele>160.647446</ele>
        <time>2026-09-05T12:23:39.796Z</time>
      </trkpt>
      <trkpt lat="51.877218" lon="22.384459">
        <ele>162.421690</ele>
        <time>2026-09-05T12:24:27.000Z</time>
      </trkpt>
      <trkpt lat="51.875613" lon="22.384377">
        <ele>162.418976</ele>
        <time>2026-09-05T12:24:45.597Z</time>
      </trkpt>
      <trkpt lat="51.871528" lon="22.384175">
        <ele>162.265989</ele>
        <time>2026-09-05T12:25:33.892Z</time>
      </trkpt>
      <trkpt lat="51.870292" lon="22.384151">
        <ele>161.841773</ele>
        <time>2026-09-05T12:25:47.261Z</time>
      </trkpt>
      <trkpt lat="51.870103" lon="22.385436">
        <ele>161.464359</ele>
        <time>2026-09-05T12:25:55.944Z</time>
      </trkpt>
      <trkpt lat="51.869958" lon="22.386218">
        <ele>161.194416</ele>
        <time>2026-09-05T12:26:01.214Z</time>
      </trkpt>
      <trkpt lat="51.869545" lon="22.388443">
        <ele>160.683707</ele>
        <time>2026-09-05T12:26:16.235Z</time>
      </trkpt>
      <trkpt lat="51.868740" lon="22.392719">
        <ele>160.865707</ele>
        <time>2026-09-05T12:26:50.050Z</time>
      </trkpt>
      <trkpt lat="51.868001" lon="22.396647">
        <ele>162.271981</ele>
        <time>2026-09-05T12:27:25.643Z</time>
      </trkpt>
      <trkpt lat="51.867543" lon="22.399093">
        <ele>162.865792</ele>
        <time>2026-09-05T12:27:46.000Z</time>
      </trkpt>
      <trkpt lat="51.867198" lon="22.400825">
        <ele>162.950526</ele>
        <time>2026-09-05T12:27:59.616Z</time>
      </trkpt>
      <trkpt lat="51.867082" lon="22.401110">
        <ele>162.966419</ele>
        <time>2026-09-05T12:28:02.191Z</time>
      </trkpt>
      <trkpt lat="51.866977" lon="22.401284">
        <ele>162.971588</ele>
        <time>2026-09-05T12:28:03.964Z</time>
      </trkpt>
      <trkpt lat="51.866374" lon="22.401971">
        <ele>162.671872</ele>
        <time>2026-09-05T12:28:12.009Z</time>
      </trkpt>
      <trkpt lat="51.866445" lon="22.402097">
        <ele>162.629053</ele>
        <time>2026-09-05T12:28:13.143Z</time>
      </trkpt>
      <trkpt lat="51.866848" lon="22.402507">
        <ele>162.435579</ele>
        <time>2026-09-05T12:28:18.166Z</time>
      </trkpt>
      <trkpt lat="51.867028" lon="22.402756">
        <ele>162.339344</ele>
        <time>2026-09-05T12:28:20.608Z</time>
      </trkpt>
      <trkpt lat="51.867115" lon="22.402938">
        <ele>162.281568</ele>
        <time>2026-09-05T12:28:22.055Z</time>
      </trkpt>
      <trkpt lat="51.871321" lon="22.413156">
        <ele>159.709091</ele>
        <time>2026-09-05T12:29:45.135Z</time>
      </trkpt>
      <trkpt lat="51.871374" lon="22.413239">
        <ele>159.689283</ele>
        <time>2026-09-05T12:29:45.905Z</time>
      </trkpt>
      <trkpt lat="51.870891" lon="22.414125">
        <ele>159.493214</ele>
        <time>2026-09-05T12:29:53.656Z</time>
      </trkpt>
      <trkpt lat="51.872184" lon="22.415967">
        <ele>159.373195</ele>
        <time>2026-09-05T12:30:13.878Z</time>
      </trkpt>
      <trkpt lat="51.874073" lon="22.418658">
        <ele>159.613703</ele>
        <time>2026-09-05T12:30:45.003Z</time>
      </trkpt>
      <trkpt lat="51.874542" lon="22.419211">
        <ele>159.504013</ele>
        <time>2026-09-05T12:30:51.604Z</time>
      </trkpt>
      <trkpt lat="51.875649" lon="22.420364">
        <ele>159.209566</ele>
        <time>2026-09-05T12:31:06.231Z</time>
      </trkpt>
      <trkpt lat="51.875930" lon="22.420718">
        <ele>159.094670</ele>
        <time>2026-09-05T12:31:10.227Z</time>
      </trkpt>
      <trkpt lat="51.876260" lon="22.421328">
        <ele>158.933058</ele>
        <time>2026-09-05T12:31:15.857Z</time>
      </trkpt>
      <trkpt lat="51.876899" lon="22.422358">
        <ele>158.641935</ele>
        <time>2026-09-05T12:31:25.658Z</time>
      </trkpt>
      <trkpt lat="51.877011" lon="22.422592">
        <ele>158.567532</ele>
        <time>2026-09-05T12:31:27.559Z</time>
      </trkpt>
      <trkpt lat="51.877670" lon="22.424400">
        <ele>158.039933</ele>
        <time>2026-09-05T12:31:41.142Z</time>
      </trkpt>
      <trkpt lat="51.877702" lon="22.424479">
        <ele>158.016190</ele>
        <time>2026-09-05T12:31:41.772Z</time>
      </trkpt>
      <trkpt lat="51.878853" lon="22.427382">
        <ele>158.044555</ele>
        <time>2026-09-05T12:32:07.821Z</time>
      </trkpt>
      <trkpt lat="51.879139" lon="22.428045">
        <ele>157.949839</ele>
        <time>2026-09-05T12:32:13.753Z</time>
      </trkpt>
      <trkpt lat="51.879239" lon="22.428176">
        <ele>157.925443</ele>
        <time>2026-09-05T12:32:15.225Z</time>
      </trkpt>
      <trkpt lat="51.879852" lon="22.428653">
        <ele>157.796441</ele>
        <time>2026-09-05T12:32:22.636Z</time>
      </trkpt>
      <trkpt lat="51.881026" lon="22.429562">
        <ele>157.709051</ele>
        <time>2026-09-05T12:32:37.308Z</time>
      </trkpt>
      <trkpt lat="51.881477" lon="22.429958">
        <ele>157.704431</ele>
        <time>2026-09-05T12:32:43.446Z</time>
      </trkpt>
      <trkpt lat="51.881545" lon="22.430117">
        <ele>157.703355</ele>
        <time>2026-09-05T12:32:44.902Z</time>
      </trkpt>
      <trkpt lat="51.882482" lon="22.434267">
        <ele>158.240390</ele>
        <time>2026-09-05T12:33:19.894Z</time>
      </trkpt>
      <trkpt lat="51.884615" lon="22.441917">
        <ele>158.342074</ele>
        <time>2026-09-05T12:34:21.199Z</time>
      </trkpt>
      <trkpt lat="51.885056" lon="22.441430">
        <ele>158.284468</ele>
        <time>2026-09-05T12:34:27.254Z</time>
      </trkpt>
      <trkpt lat="51.886398" lon="22.440077">
        <ele>158.095595</ele>
        <time>2026-09-05T12:34:45.480Z</time>
      </trkpt>
      <trkpt lat="51.887572" lon="22.438785">
        <ele>157.958282</ele>
        <time>2026-09-05T12:35:01.751Z</time>
      </trkpt>
      <trkpt lat="51.888530" lon="22.437607">
        <ele>157.964860</ele>
        <time>2026-09-05T12:35:15.709Z</time>
      </trkpt>
      <trkpt lat="51.888858" lon="22.437207">
        <ele>157.977121</ele>
        <time>2026-09-05T12:35:21.172Z</time>
      </trkpt>
      <trkpt lat="51.889261" lon="22.436780">
        <ele>158.006319</ele>
        <time>2026-09-05T12:35:27.494Z</time>
      </trkpt>
      <trkpt lat="51.889450" lon="22.436636">
        <ele>158.018983</ele>
        <time>2026-09-05T12:35:30.187Z</time>
      </trkpt>
      <trkpt lat="51.889879" lon="22.436389">
        <ele>158.046590</ele>
        <time>2026-09-05T12:35:35.840Z</time>
      </trkpt>
      <trkpt lat="51.890049" lon="22.436208">
        <ele>158.058924</ele>
        <time>2026-09-05T12:35:38.171Z</time>
      </trkpt>
      <trkpt lat="51.890365" lon="22.435658">
        <ele>157.986035</ele>
        <time>2026-09-05T12:35:43.151Z</time>
      </trkpt>
      <trkpt lat="51.890452" lon="22.435599">
        <ele>157.943086</ele>
        <time>2026-09-05T12:35:44.134Z</time>
      </trkpt>
      <trkpt lat="51.891142" lon="22.435361">
        <ele>157.621831</ele>
        <time>2026-09-05T12:35:51.358Z</time>
      </trkpt>
      <trkpt lat="51.891693" lon="22.435387">
        <ele>157.370809</ele>
        <time>2026-09-05T12:35:57.436Z</time>
      </trkpt>
      <trkpt lat="51.892614" lon="22.435510">
        <ele>156.899730</ele>
        <time>2026-09-05T12:36:07.326Z</time>
      </trkpt>
      <trkpt lat="51.892936" lon="22.435606">
        <ele>156.726162</ele>
        <time>2026-09-05T12:36:10.618Z</time>
      </trkpt>
      <trkpt lat="51.893252" lon="22.435790">
        <ele>156.548152</ele>
        <time>2026-09-05T12:36:14.036Z</time>
      </trkpt>
      <trkpt lat="51.893610" lon="22.436051">
        <ele>156.340041</ele>
        <time>2026-09-05T12:36:18.129Z</time>
      </trkpt>
      <trkpt lat="51.893703" lon="22.436082">
        <ele>156.316104</ele>
        <time>2026-09-05T12:36:19.120Z</time>
      </trkpt>
      <trkpt lat="51.893836" lon="22.436055">
        <ele>156.390701</ele>
        <time>2026-09-05T12:36:20.545Z</time>
      </trkpt>
      <trkpt lat="51.893957" lon="22.435895">
        <ele>156.477615</ele>
        <time>2026-09-05T12:36:22.241Z</time>
      </trkpt>
      <trkpt lat="51.897633" lon="22.430785">
        <ele>159.116437</ele>
        <time>2026-09-05T12:37:30.294Z</time>
      </trkpt>
      <trkpt lat="51.898902" lon="22.433154">
        <ele>158.914704</ele>
        <time>2026-09-05T12:37:52.123Z</time>
      </trkpt>
      <trkpt lat="51.898957" lon="22.433303">
        <ele>158.892792</ele>
        <time>2026-09-05T12:37:53.280Z</time>
      </trkpt>
      <trkpt lat="51.898980" lon="22.433492">
        <ele>158.843328</ele>
        <time>2026-09-05T12:37:54.562Z</time>
      </trkpt>
      <trkpt lat="51.899007" lon="22.435320">
        <ele>158.373822</ele>
        <time>2026-09-05T12:38:06.566Z</time>
      </trkpt>
      <trkpt lat="51.899036" lon="22.436429">
        <ele>158.117474</ele>
        <time>2026-09-05T12:38:13.995Z</time>
      </trkpt>
      <trkpt lat="51.899109" lon="22.438545">
        <ele>157.842019</ele>
        <time>2026-09-05T12:38:28.494Z</time>
      </trkpt>
      <trkpt lat="51.899278" lon="22.441853">
        <ele>157.860995</ele>
        <time>2026-09-05T12:38:53.305Z</time>
      </trkpt>
      <trkpt lat="51.899394" lon="22.444641">
        <ele>157.868224</ele>
        <time>2026-09-05T12:39:13.529Z</time>
      </trkpt>
      <trkpt lat="51.899526" lon="22.448111">
        <ele>158.178533</ele>
        <time>2026-09-05T12:39:40.178Z</time>
      </trkpt>
      <trkpt lat="51.899623" lon="22.449230">
        <ele>158.160516</ele>
        <time>2026-09-05T12:39:49.191Z</time>
      </trkpt>
      <trkpt lat="51.900405" lon="22.454814">
        <ele>157.560648</ele>
        <time>2026-09-05T12:40:28.388Z</time>
      </trkpt>
      <trkpt lat="51.900693" lon="22.456900">
        <ele>157.505505</ele>
        <time>2026-09-05T12:40:44.268Z</time>
      </trkpt>
      <trkpt lat="51.901175" lon="22.460387">
        <ele>157.829060</ele>
        <time>2026-09-05T12:41:10.950Z</time>
      </trkpt>
      <trkpt lat="51.901396" lon="22.462023">
        <ele>158.102154</ele>
        <time>2026-09-05T12:41:24.522Z</time>
      </trkpt>
      <trkpt lat="51.901430" lon="22.462155">
        <ele>158.115269</ele>
        <time>2026-09-05T12:41:25.726Z</time>
      </trkpt>
      <trkpt lat="51.901410" lon="22.462180">
        <ele>158.117068</ele>
        <time>2026-09-05T12:41:26.020Z</time>
      </trkpt>
      <trkpt lat="51.901387" lon="22.462329">
        <ele>158.123814</ele>
        <time>2026-09-05T12:41:27.267Z</time>
      </trkpt>
      <trkpt lat="51.901432" lon="22.462420">
        <ele>158.128937</ele>
        <time>2026-09-05T12:41:28.204Z</time>
      </trkpt>
      <trkpt lat="51.901525" lon="22.462416">
        <ele>158.135560</ele>
        <time>2026-09-05T12:41:29.452Z</time>
      </trkpt>
      <trkpt lat="51.901570" lon="22.462555">
        <ele>158.142456</ele>
        <time>2026-09-05T12:41:30.694Z</time>
      </trkpt>
      <trkpt lat="51.901604" lon="22.462739">
        <ele>158.150893</ele>
        <time>2026-09-05T12:41:32.278Z</time>
      </trkpt>
      <trkpt lat="51.901638" lon="22.463266">
        <ele>158.174168</ele>
        <time>2026-09-05T12:41:36.668Z</time>
      </trkpt>
      <trkpt lat="51.902452" lon="22.468827">
        <ele>157.216185</ele>
        <time>2026-09-05T12:42:15.815Z</time>
      </trkpt>
      <trkpt lat="51.902824" lon="22.471417">
        <ele>155.921037</ele>
        <time>2026-09-05T12:42:32.055Z</time>
      </trkpt>
      <trkpt lat="51.903034" lon="22.473255">
        <ele>154.740227</ele>
        <time>2026-09-05T12:42:43.051Z</time>
      </trkpt>
      <trkpt lat="51.903088" lon="22.473726">
        <ele>154.644853</ele>
        <time>2026-09-05T12:42:45.991Z</time>
      </trkpt>
      <trkpt lat="51.903097" lon="22.473805">
        <ele>154.628859</ele>
        <time>2026-09-05T12:42:46.493Z</time>
      </trkpt>
      <trkpt lat="51.903259" lon="22.475153">
        <ele>154.355450</ele>
        <time>2026-09-05T12:42:55.839Z</time>
      </trkpt>
      <trkpt lat="51.903368" lon="22.475846">
        <ele>154.213073</ele>
        <time>2026-09-05T12:43:00.965Z</time>
      </trkpt>
      <trkpt lat="51.903430" lon="22.476215">
        <ele>154.202440</ele>
        <time>2026-09-05T12:43:03.947Z</time>
      </trkpt>
      <trkpt lat="51.903558" lon="22.477031">
        <ele>154.475844</ele>
        <time>2026-09-05T12:43:10.639Z</time>
      </trkpt>
      <trkpt lat="51.903706" lon="22.478014">
        <ele>154.804412</ele>
        <time>2026-09-05T12:43:18.987Z</time>
      </trkpt>
      <trkpt lat="51.903891" lon="22.479189">
        <ele>155.249547</ele>
        <time>2026-09-05T12:43:29.923Z</time>
      </trkpt>
      <trkpt lat="51.903947" lon="22.479467">
        <ele>155.398867</ele>
        <time>2026-09-05T12:43:32.650Z</time>
      </trkpt>
      <trkpt lat="51.904064" lon="22.479903">
        <ele>155.641634</ele>
        <time>2026-09-05T12:43:37.083Z</time>
      </trkpt>
      <trkpt lat="51.904655" lon="22.481629">
        <ele>156.597832</ele>
        <time>2026-09-05T12:43:55.047Z</time>
      </trkpt>
      <trkpt lat="51.904660" lon="22.481643">
        <ele>156.597965</ele>
        <time>2026-09-05T12:43:55.170Z</time>
      </trkpt>
      <trkpt lat="51.904880" lon="22.482277">
        <ele>156.603979</ele>
        <time>2026-09-05T12:44:00.880Z</time>
      </trkpt>
      <trkpt lat="51.905401" lon="22.483788">
        <ele>156.618290</ele>
        <time>2026-09-05T12:44:13.332Z</time>
      </trkpt>
      <trkpt lat="51.905922" lon="22.485300">
        <ele>156.412941</ele>
        <time>2026-09-05T12:44:24.548Z</time>
      </trkpt>
      <trkpt lat="51.906586" lon="22.487219">
        <ele>156.303204</ele>
        <time>2026-09-05T12:44:40.052Z</time>
      </trkpt>
      <trkpt lat="51.907085" lon="22.488666">
        <ele>156.589914</ele>
        <time>2026-09-05T12:44:54.879Z</time>
      </trkpt>
      <trkpt lat="51.908695" lon="22.493345">
        <ele>155.887263</ele>
        <time>2026-09-05T12:45:31.110Z</time>
      </trkpt>
      <trkpt lat="51.908936" lon="22.494045">
        <ele>155.760219</ele>
        <time>2026-09-05T12:45:36.730Z</time>
      </trkpt>
      <trkpt lat="51.909053" lon="22.494391">
        <ele>155.730771</ele>
        <time>2026-09-05T12:45:39.478Z</time>
      </trkpt>
      <trkpt lat="51.909118" lon="22.494636">
        <ele>155.749806</ele>
        <time>2026-09-05T12:45:41.359Z</time>
      </trkpt>
      <trkpt lat="51.909141" lon="22.494840">
        <ele>155.764607</ele>
        <time>2026-09-05T12:45:42.886Z</time>
      </trkpt>
      <trkpt lat="51.909144" lon="22.495397">
        <ele>155.804363</ele>
        <time>2026-09-05T12:45:47.256Z</time>
      </trkpt>
      <trkpt lat="51.909144" lon="22.495488">
        <ele>155.810858</ele>
        <time>2026-09-05T12:45:47.999Z</time>
      </trkpt>
      <trkpt lat="51.909146" lon="22.495636">
        <ele>155.821423</ele>
        <time>2026-09-05T12:45:49.288Z</time>
      </trkpt>
      <trkpt lat="51.909136" lon="22.496070">
        <ele>155.852421</ele>
        <time>2026-09-05T12:45:53.017Z</time>
      </trkpt>
      <trkpt lat="51.909118" lon="22.497658">
        <ele>155.876830</ele>
        <time>2026-09-05T12:46:04.384Z</time>
      </trkpt>
      <trkpt lat="51.909106" lon="22.498732">
        <ele>155.770129</ele>
        <time>2026-09-05T12:46:12.263Z</time>
      </trkpt>
      <trkpt lat="51.909308" lon="22.499047">
        <ele>155.724996</ele>
        <time>2026-09-05T12:46:15.356Z</time>
      </trkpt>
      <trkpt lat="51.911799" lon="22.502536">
        <ele>155.033893</ele>
        <time>2026-09-05T12:46:51.632Z</time>
      </trkpt>
      <trkpt lat="51.911913" lon="22.502697">
        <ele>155.024834</ele>
        <time>2026-09-05T12:46:53.243Z</time>
      </trkpt>
      <trkpt lat="51.912044" lon="22.502880">
        <ele>155.014472</ele>
        <time>2026-09-05T12:46:55.105Z</time>
      </trkpt>
      <trkpt lat="51.912809" lon="22.503959">
        <ele>155.066902</ele>
        <time>2026-09-05T12:47:08.628Z</time>
      </trkpt>
      <trkpt lat="51.913047" lon="22.504295">
        <ele>155.119624</ele>
        <time>2026-09-05T12:47:12.887Z</time>
      </trkpt>
      <trkpt lat="51.913225" lon="22.504492">
        <ele>155.155628</ele>
        <time>2026-09-05T12:47:15.851Z</time>
      </trkpt>
      <trkpt lat="51.913468" lon="22.504628">
        <ele>155.198573</ele>
        <time>2026-09-05T12:47:19.314Z</time>
      </trkpt>
      <trkpt lat="51.915022" lon="22.504645">
        <ele>154.478476</ele>
        <time>2026-09-05T12:47:35.781Z</time>
      </trkpt>
      <trkpt lat="51.915829" lon="22.504961">
        <ele>153.833805</ele>
        <time>2026-09-05T12:47:43.600Z</time>
      </trkpt>
      <trkpt lat="51.917660" lon="22.505720">
        <ele>152.439106</ele>
        <time>2026-09-05T12:48:02.696Z</time>
      </trkpt>
      <trkpt lat="51.917804" lon="22.505773">
        <ele>152.446690</ele>
        <time>2026-09-05T12:48:04.299Z</time>
      </trkpt>
      <trkpt lat="51.918263" lon="22.505982">
        <ele>152.471177</ele>
        <time>2026-09-05T12:48:09.673Z</time>
      </trkpt>
      <trkpt lat="51.918526" lon="22.506165">
        <ele>152.485876</ele>
        <time>2026-09-05T12:48:13.040Z</time>
      </trkpt>
      <trkpt lat="51.918742" lon="22.506379">
        <ele>152.498877</ele>
        <time>2026-09-05T12:48:16.089Z</time>
      </trkpt>
      <trkpt lat="51.919433" lon="22.507335">
        <ele>153.077443</ele>
        <time>2026-09-05T12:48:29.040Z</time>
      </trkpt>
      <trkpt lat="51.919538" lon="22.507597">
        <ele>153.321053</ele>
        <time>2026-09-05T12:48:32.078Z</time>
      </trkpt>
      <trkpt lat="51.919624" lon="22.508067">
        <ele>153.703284</ele>
        <time>2026-09-05T12:48:36.993Z</time>
      </trkpt>
      <trkpt lat="51.919633" lon="22.510775">
        <ele>155.784732</ele>
        <time>2026-09-05T12:49:05.344Z</time>
      </trkpt>
      <trkpt lat="51.920881" lon="22.510407">
        <ele>157.106232</ele>
        <time>2026-09-05T12:49:24.411Z</time>
      </trkpt>
      <trkpt lat="51.921103" lon="22.510350">
        <ele>157.190110</ele>
        <time>2026-09-05T12:49:27.517Z</time>
      </trkpt>
      <trkpt lat="51.922504" lon="22.509970">
        <ele>157.640117</ele>
        <time>2026-09-05T12:49:45.460Z</time>
      </trkpt>
      <trkpt lat="51.924836" lon="22.509343">
        <ele>156.928168</ele>
        <time>2026-09-05T12:50:11.005Z</time>
      </trkpt>
      <trkpt lat="51.929606" lon="22.508068">
        <ele>155.347131</ele>
        <time>2026-09-05T12:51:03.968Z</time>
      </trkpt>
      <trkpt lat="51.930072" lon="22.507953">
        <ele>155.280714</ele>
        <time>2026-09-05T12:51:09.427Z</time>
      </trkpt>
      <trkpt lat="51.932749" lon="22.507251">
        <ele>155.054028</ele>
        <time>2026-09-05T12:51:40.926Z</time>
      </trkpt>
      <trkpt lat="51.934936" lon="22.506670">
        <ele>155.401893</ele>
        <time>2026-09-05T12:52:07.942Z</time>
      </trkpt>
      <trkpt lat="51.935739" lon="22.506451">
        <ele>155.820821</ele>
        <time>2026-09-05T12:52:20.079Z</time>
      </trkpt>
      <trkpt lat="51.936018" lon="22.506309">
        <ele>155.971262</ele>
        <time>2026-09-05T12:52:24.231Z</time>
      </trkpt>
      <trkpt lat="51.936064" lon="22.506279">
        <ele>155.996770</ele>
        <time>2026-09-05T12:52:24.923Z</time>
      </trkpt>
      <trkpt lat="51.936307" lon="22.506068">
        <ele>156.138577</ele>
        <time>2026-09-05T12:52:28.548Z</time>
      </trkpt>
      <trkpt lat="51.936772" lon="22.505507">
        <ele>156.266574</ele>
        <time>2026-09-05T12:52:35.194Z</time>
      </trkpt>
      <trkpt lat="51.937299" lon="22.504706">
        <ele>156.278217</ele>
        <time>2026-09-05T12:52:43.411Z</time>
      </trkpt>
      <trkpt lat="51.937792" lon="22.503851">
        <ele>156.289853</ele>
        <time>2026-09-05T12:52:52.242Z</time>
      </trkpt>
      <trkpt lat="51.938106" lon="22.503213">
        <ele>156.408987</ele>
        <time>2026-09-05T12:52:58.778Z</time>
      </trkpt>
      <trkpt lat="51.937659" lon="22.502565">
        <ele>156.554468</ele>
        <time>2026-09-05T12:53:06.361Z</time>
      </trkpt>
      <trkpt lat="51.937578" lon="22.502411">
        <ele>156.584753</ele>
        <time>2026-09-05T12:53:07.906Z</time>
      </trkpt>
      <trkpt lat="51.937511" lon="22.502101">
        <ele>156.633899</ele>
        <time>2026-09-05T12:53:10.445Z</time>
      </trkpt>
      <trkpt lat="51.937495" lon="22.501428">
        <ele>156.739603</ele>
        <time>2026-09-05T12:53:15.545Z</time>
      </trkpt>
      <trkpt lat="51.937494" lon="22.501306">
        <ele>156.768965</ele>
        <time>2026-09-05T12:53:16.486Z</time>
      </trkpt>
      <trkpt lat="51.937485" lon="22.500456">
        <ele>156.973543</ele>
        <time>2026-09-05T12:53:23.275Z</time>
      </trkpt>
      <trkpt lat="51.937468" lon="22.499056">
        <ele>157.310511</ele>
        <time>2026-09-05T12:53:35.018Z</time>
      </trkpt>
      <trkpt lat="51.937430" lon="22.498751">
        <ele>157.385391</ele>
        <time>2026-09-05T12:53:37.562Z</time>
      </trkpt>
      <trkpt lat="51.937308" lon="22.498215">
        <ele>157.465262</ele>
        <time>2026-09-05T12:53:42.065Z</time>
      </trkpt>
      <trkpt lat="51.937294" lon="22.498161">
        <ele>157.470744</ele>
        <time>2026-09-05T12:53:42.501Z</time>
      </trkpt>
      <trkpt lat="51.937697" lon="22.497599">
        <ele>157.551412</ele>
        <time>2026-09-05T12:53:49.152Z</time>
      </trkpt>
      <trkpt lat="51.938886" lon="22.495637">
        <ele>157.768914</ele>
        <time>2026-09-05T12:54:09.274Z</time>
      </trkpt>
      <trkpt lat="51.939765" lon="22.494097">
        <ele>157.904059</ele>
        <time>2026-09-05T12:54:25.376Z</time>
      </trkpt>
      <trkpt lat="51.939783" lon="22.494064">
        <ele>157.908247</ele>
        <time>2026-09-05T12:54:25.721Z</time>
      </trkpt>
      <trkpt lat="51.939868" lon="22.493942">
        <ele>157.925746</ele>
        <time>2026-09-05T12:54:27.157Z</time>
      </trkpt>
      <trkpt lat="51.940098" lon="22.493782">
        <ele>157.964331</ele>
        <time>2026-09-05T12:54:30.334Z</time>
      </trkpt>
      <trkpt lat="51.940167" lon="22.493707">
        <ele>157.977137</ele>
        <time>2026-09-05T12:54:31.377Z</time>
      </trkpt>
      <trkpt lat="51.940208" lon="22.493634">
        <ele>157.986523</ele>
        <time>2026-09-05T12:54:32.150Z</time>
      </trkpt>
      <trkpt lat="51.942531" lon="22.489314">
        <ele>158.332608</ele>
        <time>2026-09-05T12:55:15.706Z</time>
      </trkpt>
      <trkpt lat="51.944781" lon="22.484685">
        <ele>157.725143</ele>
        <time>2026-09-05T12:55:56.270Z</time>
      </trkpt>
      <trkpt lat="51.946100" lon="22.481181">
        <ele>157.701087</ele>
        <time>2026-09-05T12:56:26.469Z</time>
      </trkpt>
      <trkpt lat="51.947044" lon="22.477694">
        <ele>158.015428</ele>
        <time>2026-09-05T12:56:54.665Z</time>
      </trkpt>
      <trkpt lat="51.947546" lon="22.475869">
        <ele>158.763167</ele>
        <time>2026-09-05T12:57:12.580Z</time>
      </trkpt>
      <trkpt lat="51.947721" lon="22.475437">
        <ele>158.956583</ele>
        <time>2026-09-05T12:57:17.230Z</time>
      </trkpt>
      <trkpt lat="51.949381" lon="22.472066">
        <ele>159.550034</ele>
        <time>2026-09-05T12:57:50.910Z</time>
      </trkpt>
      <trkpt lat="51.949599" lon="22.471742">
        <ele>159.536281</ele>
        <time>2026-09-05T12:57:54.334Z</time>
      </trkpt>
      <trkpt lat="51.949783" lon="22.471637">
        <ele>159.527207</ele>
        <time>2026-09-05T12:57:56.566Z</time>
      </trkpt>
      <trkpt lat="51.953063" lon="22.470619">
        <ele>158.408761</ele>
        <time>2026-09-05T12:58:32.774Z</time>
      </trkpt>
      <trkpt lat="51.954657" lon="22.470117">
        <ele>157.914826</ele>
        <time>2026-09-05T12:58:50.428Z</time>
      </trkpt>
      <trkpt lat="51.955011" lon="22.470006">
        <ele>157.829515</ele>
        <time>2026-09-05T12:58:54.382Z</time>
      </trkpt>
      <trkpt lat="51.959055" lon="22.468760">
        <ele>157.786273</ele>
        <time>2026-09-05T12:59:42.875Z</time>
      </trkpt>
      <trkpt lat="51.959139" lon="22.468724">
        <ele>157.800912</ele>
        <time>2026-09-05T12:59:44.101Z</time>
      </trkpt>
      <trkpt lat="51.959427" lon="22.468483">
        <ele>157.906488</ele>
        <time>2026-09-05T12:59:48.695Z</time>
      </trkpt>
      <trkpt lat="51.959787" lon="22.468134">
        <ele>158.043118</ele>
        <time>2026-09-05T12:59:54.619Z</time>
      </trkpt>
      <trkpt lat="51.961129" lon="22.467827">
        <ele>158.300405</ele>
        <time>2026-09-05T13:00:11.741Z</time>
      </trkpt>
      <trkpt lat="51.960901" lon="22.465421">
        <ele>157.942612</ele>
        <time>2026-09-05T13:00:28.099Z</time>
      </trkpt>
      <trkpt lat="51.960501" lon="22.462083">
        <ele>156.691318</ele>
        <time>2026-09-05T13:00:50.011Z</time>
      </trkpt>
      <trkpt lat="51.961784" lon="22.462270">
        <ele>155.682555</ele>
        <time>2026-09-05T13:01:02.537Z</time>
      </trkpt>
      <trkpt lat="51.962564" lon="22.462297">
        <ele>155.783836</ele>
        <time>2026-09-05T13:01:11.087Z</time>
      </trkpt>
      <trkpt lat="51.962660" lon="22.462302">
        <ele>155.822920</ele>
        <time>2026-09-05T13:01:12.286Z</time>
      </trkpt>
      <trkpt lat="51.964138" lon="22.462260">
        <ele>156.513261</ele>
        <time>2026-09-05T13:01:34.345Z</time>
      </trkpt>
      <trkpt lat="51.964193" lon="22.462741">
        <ele>156.707482</ele>
        <time>2026-09-05T13:01:39.102Z</time>
      </trkpt>
      <trkpt lat="51.964223" lon="22.463451">
        <ele>156.990018</ele>
        <time>2026-09-05T13:01:45.893Z</time>
      </trkpt>
      <trkpt lat="51.964441" lon="22.463525">
        <ele>157.133522</ele>
        <time>2026-09-05T13:01:49.152Z</time>
      </trkpt>
      <trkpt lat="51.965411" lon="22.463719">
        <ele>157.314391</ele>
        <time>2026-09-05T13:01:59.767Z</time>
      </trkpt>
      <trkpt lat="51.965922" lon="22.463781">
        <ele>157.198365</ele>
        <time>2026-09-05T13:02:05.062Z</time>
      </trkpt>
      <trkpt lat="51.966349" lon="22.463767">
        <ele>157.101662</ele>
        <time>2026-09-05T13:02:09.550Z</time>
      </trkpt>
      <trkpt lat="51.967990" lon="22.463684">
        <ele>157.135902</ele>
        <time>2026-09-05T13:02:31.340Z</time>
      </trkpt>
      <trkpt lat="51.968100" lon="22.463686">
        <ele>157.145397</ele>
        <time>2026-09-05T13:02:32.729Z</time>
      </trkpt>
      <trkpt lat="51.969327" lon="22.463637">
        <ele>156.486433</ele>
        <time>2026-09-05T13:02:45.394Z</time>
      </trkpt>
      <trkpt lat="51.969900" lon="22.463679">
        <ele>156.011691</ele>
        <time>2026-09-05T13:02:50.846Z</time>
      </trkpt>
      <trkpt lat="51.970711" lon="22.463860">
        <ele>155.543532</ele>
        <time>2026-09-05T13:02:58.894Z</time>
      </trkpt>
      <trkpt lat="51.972288" lon="22.464306">
        <ele>155.111575</ele>
        <time>2026-09-05T13:03:17.220Z</time>
      </trkpt>
      <trkpt lat="51.972651" lon="22.464356">
        <ele>155.166218</ele>
        <time>2026-09-05T13:03:21.869Z</time>
      </trkpt>
      <trkpt lat="51.974589" lon="22.464291">
        <ele>155.391457</ele>
        <time>2026-09-05T13:03:46.228Z</time>
      </trkpt>
      <trkpt lat="51.974841" lon="22.464374">
        <ele>155.407158</ele>
        <time>2026-09-05T13:03:49.172Z</time>
      </trkpt>
      <trkpt lat="51.976593" lon="22.465326">
        <ele>155.619760</ele>
        <time>2026-09-05T13:04:10.770Z</time>
      </trkpt>
      <trkpt lat="51.978518" lon="22.466364">
        <ele>156.144330</ele>
        <time>2026-09-05T13:04:37.799Z</time>
      </trkpt>
      <trkpt lat="51.978830" lon="22.466452">
        <ele>156.245387</ele>
        <time>2026-09-05T13:04:41.668Z</time>
      </trkpt>
      <trkpt lat="51.980485" lon="22.466763">
        <ele>156.078314</ele>
        <time>2026-09-05T13:05:00.889Z</time>
      </trkpt>
      <trkpt lat="51.980960" lon="22.466858">
        <ele>155.946505</ele>
        <time>2026-09-05T13:05:05.850Z</time>
      </trkpt>
      <trkpt lat="51.981769" lon="22.467019">
        <ele>155.487452</ele>
        <time>2026-09-05T13:05:15.146Z</time>
      </trkpt>
      <trkpt lat="51.982540" lon="22.467163">
        <ele>155.050348</ele>
        <time>2026-09-05T13:05:22.897Z</time>
      </trkpt>
      <trkpt lat="51.984631" lon="22.467561">
        <ele>153.301451</ele>
        <time>2026-09-05T13:05:43.528Z</time>
      </trkpt>
      <trkpt lat="51.986513" lon="22.467926">
        <ele>153.119695</ele>
        <time>2026-09-05T13:06:05.591Z</time>
      </trkpt>
      <trkpt lat="51.989900" lon="22.468588">
        <ele>154.913481</ele>
        <time>2026-09-05T13:06:52.399Z</time>
      </trkpt>
      <trkpt lat="51.989980" lon="22.468603">
        <ele>154.972641</ele>
        <time>2026-09-05T13:06:53.523Z</time>
      </trkpt>
      <trkpt lat="51.991165" lon="22.468855">
        <ele>155.850591</ele>
        <time>2026-09-05T13:07:10.310Z</time>
      </trkpt>
      <trkpt lat="51.991331" lon="22.468836">
        <ele>155.972839</ele>
        <time>2026-09-05T13:07:12.726Z</time>
      </trkpt>
      <trkpt lat="51.991622" lon="22.468613">
        <ele>156.244254</ele>
        <time>2026-09-05T13:07:17.497Z</time>
      </trkpt>
      <trkpt lat="51.993380" lon="22.466976">
        <ele>158.233627</ele>
        <time>2026-09-05T13:07:48.839Z</time>
      </trkpt>
      <trkpt lat="51.993613" lon="22.466864">
        <ele>158.391847</ele>
        <time>2026-09-05T13:07:52.376Z</time>
      </trkpt>
      <trkpt lat="51.993923" lon="22.466858">
        <ele>158.593712</ele>
        <time>2026-09-05T13:07:56.874Z</time>
      </trkpt>
      <trkpt lat="51.994409" lon="22.466893">
        <ele>158.910473</ele>
        <time>2026-09-05T13:08:03.543Z</time>
      </trkpt>
      <trkpt lat="51.994938" lon="22.467081">
        <ele>159.161884</ele>
        <time>2026-09-05T13:08:10.438Z</time>
      </trkpt>
      <trkpt lat="51.996371" lon="22.467174">
        <ele>158.905486</ele>
        <time>2026-09-05T13:08:26.384Z</time>
      </trkpt>
      <trkpt lat="51.997029" lon="22.467767">
        <ele>158.922448</ele>
        <time>2026-09-05T13:08:34.406Z</time>
      </trkpt>
      <trkpt lat="51.997162" lon="22.467820">
        <ele>158.938650</ele>
        <time>2026-09-05T13:08:35.931Z</time>
      </trkpt>
      <trkpt lat="51.999565" lon="22.468352">
        <ele>159.332115</ele>
        <time>2026-09-05T13:09:07.998Z</time>
      </trkpt>
      <trkpt lat="52.003398" lon="22.469216">
        <ele>158.629755</ele>
        <time>2026-09-05T13:09:51.048Z</time>
      </trkpt>
      <trkpt lat="52.007008" lon="22.470038">
        <ele>158.507855</ele>
        <time>2026-09-05T13:10:32.596Z</time>
      </trkpt>
      <trkpt lat="52.008300" lon="22.470390">
        <ele>159.486055</ele>
        <time>2026-09-05T13:10:54.352Z</time>
      </trkpt>
      <trkpt lat="52.010426" lon="22.471021">
        <ele>160.221033</ele>
        <time>2026-09-05T13:11:21.028Z</time>
      </trkpt>
      <trkpt lat="52.012850" lon="22.471156">
        <ele>160.261159</ele>
        <time>2026-09-05T13:11:49.235Z</time>
      </trkpt>
      <trkpt lat="52.013200" lon="22.471206">
        <ele>160.373330</ele>
        <time>2026-09-05T13:11:53.810Z</time>
      </trkpt>
      <trkpt lat="52.013536" lon="22.471356">
        <ele>160.484576</ele>
        <time>2026-09-05T13:11:58.432Z</time>
      </trkpt>
      <trkpt lat="52.013930" lon="22.471707">
        <ele>160.628030</ele>
        <time>2026-09-05T13:12:04.562Z</time>
      </trkpt>
      <trkpt lat="52.015113" lon="22.473125">
        <ele>160.630640</ele>
        <time>2026-09-05T13:12:23.909Z</time>
      </trkpt>
      <trkpt lat="52.015251" lon="22.473323">
        <ele>160.612461</ele>
        <time>2026-09-05T13:12:25.949Z</time>
      </trkpt>
      <trkpt lat="52.015673" lon="22.474127">
        <ele>160.429827</ele>
        <time>2026-09-05T13:12:32.333Z</time>
      </trkpt>
      <trkpt lat="52.015831" lon="22.474379">
        <ele>160.235887</ele>
        <time>2026-09-05T13:12:34.380Z</time>
      </trkpt>
      <trkpt lat="52.016417" lon="22.474797">
        <ele>159.675279</ele>
        <time>2026-09-05T13:12:40.364Z</time>
      </trkpt>
      <trkpt lat="52.016527" lon="22.475001">
        <ele>159.529061</ele>
        <time>2026-09-05T13:12:41.951Z</time>
      </trkpt>
      <trkpt lat="52.016592" lon="22.475332">
        <ele>159.341754</ele>
        <time>2026-09-05T13:12:43.999Z</time>
      </trkpt>
      <trkpt lat="52.016582" lon="22.475541">
        <ele>159.228741</ele>
        <time>2026-09-05T13:12:45.264Z</time>
      </trkpt>
      <trkpt lat="52.016545" lon="22.475710">
        <ele>159.132039</ele>
        <time>2026-09-05T13:12:46.374Z</time>
      </trkpt>
      <trkpt lat="52.014713" lon="22.483048">
        <ele>160.716497</ele>
        <time>2026-09-05T13:13:51.561Z</time>
      </trkpt>
      <trkpt lat="52.014649" lon="22.483416">
        <ele>160.767540</ele>
        <time>2026-09-05T13:13:54.438Z</time>
      </trkpt>
      <trkpt lat="52.014654" lon="22.483620">
        <ele>160.794791</ele>
        <time>2026-09-05T13:13:55.973Z</time>
      </trkpt>
      <trkpt lat="52.014699" lon="22.483844">
        <ele>160.826243</ele>
        <time>2026-09-05T13:13:57.669Z</time>
      </trkpt>
      <trkpt lat="52.014757" lon="22.483964">
        <ele>160.846610</ele>
        <time>2026-09-05T13:13:58.741Z</time>
      </trkpt>
      <trkpt lat="52.014899" lon="22.484107">
        <ele>160.818885</ele>
        <time>2026-09-05T13:14:00.615Z</time>
      </trkpt>
      <trkpt lat="52.017369" lon="22.486101">
        <ele>159.563345</ele>
        <time>2026-09-05T13:14:28.926Z</time>
      </trkpt>
      <trkpt lat="52.017941" lon="22.486546">
        <ele>159.409189</ele>
        <time>2026-09-05T13:14:36.927Z</time>
      </trkpt>
      <trkpt lat="52.018942" lon="22.487513">
        <ele>159.771081</ele>
        <time>2026-09-05T13:14:53.078Z</time>
      </trkpt>
      <trkpt lat="52.019187" lon="22.487726">
        <ele>159.875957</ele>
        <time>2026-09-05T13:14:56.793Z</time>
      </trkpt>
      <trkpt lat="52.021222" lon="22.486002">
        <ele>159.948826</ele>
        <time>2026-09-05T13:15:23.617Z</time>
      </trkpt>
      <trkpt lat="52.027327" lon="22.481110">
        <ele>158.364324</ele>
        <time>2026-09-05T13:16:39.291Z</time>
      </trkpt>
      <trkpt lat="52.030070" lon="22.478918">
        <ele>158.874261</ele>
        <time>2026-09-05T13:17:17.523Z</time>
      </trkpt>
      <trkpt lat="52.034027" lon="22.475261">
        <ele>160.113104</ele>
        <time>2026-09-05T13:18:16.166Z</time>
      </trkpt>
      <trkpt lat="52.034128" lon="22.475168">
        <ele>160.125284</ele>
        <time>2026-09-05T13:18:17.507Z</time>
      </trkpt>
      <trkpt lat="52.034983" lon="22.474384">
        <ele>160.228288</ele>
        <time>2026-09-05T13:18:28.775Z</time>
      </trkpt>
      <trkpt lat="52.036463" lon="22.472944">
        <ele>160.783222</ele>
        <time>2026-09-05T13:18:50.809Z</time>
      </trkpt>
      <trkpt lat="52.036573" lon="22.472770">
        <ele>160.853219</ele>
        <time>2026-09-05T13:18:52.971Z</time>
      </trkpt>
      <trkpt lat="52.037518" lon="22.470785">
        <ele>161.483743</ele>
        <time>2026-09-05T13:19:14.749Z</time>
      </trkpt>
      <trkpt lat="52.037753" lon="22.470025">
        <ele>161.682398</ele>
        <time>2026-09-05T13:19:21.211Z</time>
      </trkpt>
      <trkpt lat="52.037958" lon="22.469067">
        <ele>161.682390</ele>
        <time>2026-09-05T13:19:28.335Z</time>
      </trkpt>
      <trkpt lat="52.038080" lon="22.467544">
        <ele>161.324744</ele>
        <time>2026-09-05T13:19:38.828Z</time>
      </trkpt>
      <trkpt lat="52.038305" lon="22.465876">
        <ele>160.799393</ele>
        <time>2026-09-05T13:19:49.585Z</time>
      </trkpt>
      <trkpt lat="52.038382" lon="22.465671">
        <ele>160.706388</ele>
        <time>2026-09-05T13:19:51.075Z</time>
      </trkpt>
      <trkpt lat="52.038613" lon="22.465418">
        <ele>160.531062</ele>
        <time>2026-09-05T13:19:53.867Z</time>
      </trkpt>
      <trkpt lat="52.041140" lon="22.463009">
        <ele>159.188993</ele>
        <time>2026-09-05T13:20:25.047Z</time>
      </trkpt>
      <trkpt lat="52.044342" lon="22.460065">
        <ele>159.427463</ele>
        <time>2026-09-05T13:21:09.882Z</time>
      </trkpt>
      <trkpt lat="52.050289" lon="22.454713">
        <ele>160.609290</ele>
        <time>2026-09-05T13:22:34.438Z</time>
      </trkpt>
      <trkpt lat="52.050339" lon="22.454669">
        <ele>160.618955</ele>
        <time>2026-09-05T13:22:35.156Z</time>
      </trkpt>
      <trkpt lat="52.050630" lon="22.454689">
        <ele>160.647656</ele>
        <time>2026-09-05T13:22:38.866Z</time>
      </trkpt>
      <trkpt lat="52.052242" lon="22.455177">
        <ele>160.735482</ele>
        <time>2026-09-05T13:22:58.941Z</time>
      </trkpt>
      <trkpt lat="52.052284" lon="22.455109">
        <ele>160.710188</ele>
        <time>2026-09-05T13:22:59.598Z</time>
      </trkpt>
      <trkpt lat="52.052614" lon="22.453922">
        <ele>160.368306</ele>
        <time>2026-09-05T13:23:08.070Z</time>
      </trkpt>
      <trkpt lat="52.052693" lon="22.453755">
        <ele>160.313010</ele>
        <time>2026-09-05T13:23:09.402Z</time>
      </trkpt>
      <trkpt lat="52.052781" lon="22.453639">
        <ele>160.264664</ele>
        <time>2026-09-05T13:23:10.555Z</time>
      </trkpt>
      <trkpt lat="52.053147" lon="22.453301">
        <ele>160.085030</ele>
        <time>2026-09-05T13:23:14.883Z</time>
      </trkpt>
      <trkpt lat="52.053393" lon="22.452941">
        <ele>160.029458</ele>
        <time>2026-09-05T13:23:18.355Z</time>
      </trkpt>
      <trkpt lat="52.053511" lon="22.452656">
        <ele>160.031276</ele>
        <time>2026-09-05T13:23:20.616Z</time>
      </trkpt>
      <trkpt lat="52.053822" lon="22.451685">
        <ele>160.037072</ele>
        <time>2026-09-05T13:23:28.521Z</time>
      </trkpt>
      <trkpt lat="52.053977" lon="22.451159">
        <ele>160.040159</ele>
        <time>2026-09-05T13:23:33.221Z</time>
      </trkpt>
      <trkpt lat="52.054118" lon="22.450393">
        <ele>160.010357</ele>
        <time>2026-09-05T13:23:39.949Z</time>
      </trkpt>
      <trkpt lat="52.054150" lon="22.450053">
        <ele>159.958041</ele>
        <time>2026-09-05T13:23:42.725Z</time>
      </trkpt>
      <trkpt lat="52.054183" lon="22.449002">
        <ele>159.797979</ele>
        <time>2026-09-05T13:23:50.616Z</time>
      </trkpt>
      <trkpt lat="52.055777" lon="22.449415">
        <ele>158.909618</ele>
        <time>2026-09-05T13:24:06.760Z</time>
      </trkpt>
      <trkpt lat="52.055961" lon="22.449433">
        <ele>158.752309</ele>
        <time>2026-09-05T13:24:08.560Z</time>
      </trkpt>
      <trkpt lat="52.056161" lon="22.449361">
        <ele>158.577498</ele>
        <time>2026-09-05T13:24:10.567Z</time>
      </trkpt>
      <trkpt lat="52.058280" lon="22.448175">
        <ele>156.773173</ele>
        <time>2026-09-05T13:24:32.850Z</time>
      </trkpt>
      <trkpt lat="52.060876" lon="22.446377">
        <ele>156.083293</ele>
        <time>2026-09-05T13:25:04.114Z</time>
      </trkpt>
      <trkpt lat="52.062478" lon="22.445306">
        <ele>156.216972</ele>
        <time>2026-09-05T13:25:26.777Z</time>
      </trkpt>
      <trkpt lat="52.062472" lon="22.445040">
        <ele>156.235884</ele>
        <time>2026-09-05T13:25:28.826Z</time>
      </trkpt>
      <trkpt lat="52.063210" lon="22.435273">
        <ele>155.301613</ele>
        <time>2026-09-05T13:26:37.082Z</time>
      </trkpt>
      <trkpt lat="52.063843" lon="22.426902">
        <ele>154.508444</ele>
        <time>2026-09-05T13:27:35.803Z</time>
      </trkpt>
      <trkpt lat="52.067234" lon="22.427589">
        <ele>155.205529</ele>
        <time>2026-09-05T13:28:20.607Z</time>
      </trkpt>
      <trkpt lat="52.067432" lon="22.427625">
        <ele>155.217063</ele>
        <time>2026-09-05T13:28:22.712Z</time>
      </trkpt>
      <trkpt lat="52.067552" lon="22.427610">
        <ele>155.224030</ele>
        <time>2026-09-05T13:28:23.982Z</time>
      </trkpt>
      <trkpt lat="52.067644" lon="22.427548">
        <ele>155.229795</ele>
        <time>2026-09-05T13:28:25.016Z</time>
      </trkpt>
      <trkpt lat="52.067742" lon="22.427406">
        <ele>155.237392</ele>
        <time>2026-09-05T13:28:26.373Z</time>
      </trkpt>
      <trkpt lat="52.067813" lon="22.427214">
        <ele>155.201853</ele>
        <time>2026-09-05T13:28:27.794Z</time>
      </trkpt>
      <trkpt lat="52.067938" lon="22.426258">
        <ele>155.004308</ele>
        <time>2026-09-05T13:28:33.915Z</time>
      </trkpt>
      <trkpt lat="52.068363" lon="22.422855">
        <ele>154.552877</ele>
        <time>2026-09-05T13:28:58.230Z</time>
      </trkpt>
      <trkpt lat="52.068556" lon="22.421295">
        <ele>154.596706</ele>
        <time>2026-09-05T13:29:09.701Z</time>
      </trkpt>
      <trkpt lat="52.068578" lon="22.420798">
        <ele>154.745747</ele>
        <time>2026-09-05T13:29:13.524Z</time>
      </trkpt>
      <trkpt lat="52.068577" lon="22.419608">
        <ele>155.101684</ele>
        <time>2026-09-05T13:29:23.507Z</time>
      </trkpt>
      <trkpt lat="52.068625" lon="22.419102">
        <ele>155.254823</ele>
        <time>2026-09-05T13:29:28.159Z</time>
      </trkpt>
      <trkpt lat="52.068739" lon="22.418304">
        <ele>155.470383</ele>
        <time>2026-09-05T13:29:35.604Z</time>
      </trkpt>
      <trkpt lat="52.068802" lon="22.418031">
        <ele>155.539148</ele>
        <time>2026-09-05T13:29:38.162Z</time>
      </trkpt>
      <trkpt lat="52.068913" lon="22.418086">
        <ele>155.583662</ele>
        <time>2026-09-05T13:29:39.779Z</time>
      </trkpt>
      <trkpt lat="52.069499" lon="22.418421">
        <ele>155.821942</ele>
        <time>2026-09-05T13:29:48.149Z</time>
      </trkpt>
      <trkpt lat="52.072620" lon="22.420011">
        <ele>155.562091</ele>
        <time>2026-09-05T13:30:25.056Z</time>
      </trkpt>
      <trkpt lat="52.072897" lon="22.420214">
        <ele>155.518604</ele>
        <time>2026-09-05T13:30:28.415Z</time>
      </trkpt>
      <trkpt lat="52.073195" lon="22.420521">
        <ele>155.468116</ele>
        <time>2026-09-05T13:30:32.377Z</time>
      </trkpt>
      <trkpt lat="52.080683" lon="22.429499">
        <ele>157.649847</ele>
        <time>2026-09-05T13:32:30.095Z</time>
      </trkpt>
      <trkpt lat="52.085308" lon="22.435095">
        <ele>158.186876</ele>
        <time>2026-09-05T13:33:39.646Z</time>
      </trkpt>
      <trkpt lat="52.085888" lon="22.435795">
        <ele>158.494927</ele>
        <time>2026-09-05T13:33:49.535Z</time>
      </trkpt>
      <trkpt lat="52.086178" lon="22.436144">
        <ele>158.648796</ele>
        <time>2026-09-05T13:33:54.631Z</time>
      </trkpt>
      <trkpt lat="52.086390" lon="22.436400">
        <ele>158.761415</ele>
        <time>2026-09-05T13:33:58.356Z</time>
      </trkpt>
      <trkpt lat="52.087449" lon="22.437694">
        <ele>158.953563</ele>
        <time>2026-09-05T13:34:14.645Z</time>
      </trkpt>
      <trkpt lat="52.087663" lon="22.437840">
        <ele>158.985076</ele>
        <time>2026-09-05T13:34:17.441Z</time>
      </trkpt>
      <trkpt lat="52.088324" lon="22.438099">
        <ele>158.895204</ele>
        <time>2026-09-05T13:34:25.183Z</time>
      </trkpt>
      <trkpt lat="52.089212" lon="22.438447">
        <ele>158.598193</ele>
        <time>2026-09-05T13:34:35.180Z</time>
      </trkpt>
      <trkpt lat="52.089293" lon="22.438484">
        <ele>158.570836</ele>
        <time>2026-09-05T13:34:36.108Z</time>
      </trkpt>
      <trkpt lat="52.089343" lon="22.438506">
        <ele>158.553993</ele>
        <time>2026-09-05T13:34:36.679Z</time>
      </trkpt>
      <trkpt lat="52.089447" lon="22.438576">
        <ele>158.517397</ele>
        <time>2026-09-05T13:34:37.891Z</time>
      </trkpt>
      <trkpt lat="52.089958" lon="22.438941">
        <ele>158.213384</ele>
        <time>2026-09-05T13:34:43.805Z</time>
      </trkpt>
      <trkpt lat="52.090098" lon="22.439006">
        <ele>158.109673</ele>
        <time>2026-09-05T13:34:45.357Z</time>
      </trkpt>
      <trkpt lat="52.090303" lon="22.438959">
        <ele>157.962195</ele>
        <time>2026-09-05T13:34:47.528Z</time>
      </trkpt>
      <trkpt lat="52.090693" lon="22.438775">
        <ele>157.672933</ele>
        <time>2026-09-05T13:34:51.634Z</time>
      </trkpt>
      <trkpt lat="52.090876" lon="22.438803">
        <ele>157.541995</ele>
        <time>2026-09-05T13:34:53.460Z</time>
      </trkpt>
      <trkpt lat="52.091067" lon="22.438880">
        <ele>157.401820</ele>
        <time>2026-09-05T13:34:55.410Z</time>
      </trkpt>
      <trkpt lat="52.091740" lon="22.439299">
        <ele>157.134014</ele>
        <time>2026-09-05T13:35:02.552Z</time>
      </trkpt>
      <trkpt lat="52.092079" lon="22.439450">
        <ele>157.112109</ele>
        <time>2026-09-05T13:35:06.311Z</time>
      </trkpt>
      <trkpt lat="52.093097" lon="22.439366">
        <ele>157.048582</ele>
        <time>2026-09-05T13:35:19.436Z</time>
      </trkpt>
      <trkpt lat="52.093449" lon="22.439346">
        <ele>157.201238</ele>
        <time>2026-09-05T13:35:24.358Z</time>
      </trkpt>
      <trkpt lat="52.093561" lon="22.439340">
        <ele>157.259043</ele>
        <time>2026-09-05T13:35:25.844Z</time>
      </trkpt>
      <trkpt lat="52.094934" lon="22.439238">
        <ele>157.968022</ele>
        <time>2026-09-05T13:35:44.478Z</time>
      </trkpt>
      <trkpt lat="52.095267" lon="22.439212">
        <ele>158.145859</ele>
        <time>2026-09-05T13:35:48.976Z</time>
      </trkpt>
      <trkpt lat="52.095725" lon="22.439176">
        <ele>158.390709</ele>
        <time>2026-09-05T13:35:55.348Z</time>
      </trkpt>
      <trkpt lat="52.100054" lon="22.438836">
        <ele>160.565282</ele>
        <time>2026-09-05T13:36:54.043Z</time>
      </trkpt>
      <trkpt lat="52.100107" lon="22.438831">
        <ele>160.588745</ele>
        <time>2026-09-05T13:36:54.742Z</time>
      </trkpt>
      <trkpt lat="52.100716" lon="22.438788">
        <ele>160.626643</ele>
        <time>2026-09-05T13:37:02.324Z</time>
      </trkpt>
      <trkpt lat="52.101217" lon="22.438743">
        <ele>160.544736</ele>
        <time>2026-09-05T13:37:08.066Z</time>
      </trkpt>
      <trkpt lat="52.101805" lon="22.438708">
        <ele>160.448687</ele>
        <time>2026-09-05T13:37:14.381Z</time>
      </trkpt>
      <trkpt lat="52.102443" lon="22.438668">
        <ele>160.428221</ele>
        <time>2026-09-05T13:37:21.133Z</time>
      </trkpt>
      <trkpt lat="52.103295" lon="22.438514">
        <ele>160.518031</ele>
        <time>2026-09-05T13:37:31.428Z</time>
      </trkpt>
      <trkpt lat="52.106138" lon="22.437820">
        <ele>161.786997</ele>
        <time>2026-09-05T13:38:10.905Z</time>
      </trkpt>
      <trkpt lat="52.106583" lon="22.437760">
        <ele>161.946362</ele>
        <time>2026-09-05T13:38:16.844Z</time>
      </trkpt>
      <trkpt lat="52.107146" lon="22.437774">
        <ele>162.147321</ele>
        <time>2026-09-05T13:38:24.065Z</time>
      </trkpt>
      <trkpt lat="52.107363" lon="22.437846">
        <ele>162.226360</ele>
        <time>2026-09-05T13:38:26.833Z</time>
      </trkpt>
      <trkpt lat="52.110262" lon="22.439103">
        <ele>162.489716</ele>
        <time>2026-09-05T13:39:02.474Z</time>
      </trkpt>
      <trkpt lat="52.111609" lon="22.439635">
        <ele>162.959484</ele>
        <time>2026-09-05T13:39:20.636Z</time>
      </trkpt>
      <trkpt lat="52.112001" lon="22.439746">
        <ele>163.164144</ele>
        <time>2026-09-05T13:39:26.115Z</time>
      </trkpt>
      <trkpt lat="52.113494" lon="22.439824">
        <ele>163.902471</ele>
        <time>2026-09-05T13:39:46.725Z</time>
      </trkpt>
      <trkpt lat="52.117168" lon="22.439994">
        <ele>165.506392</ele>
        <time>2026-09-05T13:40:34.781Z</time>
      </trkpt>
      <trkpt lat="52.119593" lon="22.440115">
        <ele>166.592452</ele>
        <time>2026-09-05T13:41:08.375Z</time>
      </trkpt>
      <trkpt lat="52.120676" lon="22.440169">
        <ele>166.547826</ele>
        <time>2026-09-05T13:41:20.442Z</time>
      </trkpt>
      <trkpt lat="52.122742" lon="22.439876">
        <ele>166.068946</ele>
        <time>2026-09-05T13:41:43.238Z</time>
      </trkpt>
      <trkpt lat="52.123757" lon="22.439804">
        <ele>165.968059</ele>
        <time>2026-09-05T13:41:54.734Z</time>
      </trkpt>
      <trkpt lat="52.124262" lon="22.439785">
        <ele>166.113770</ele>
        <time>2026-09-05T13:42:01.173Z</time>
      </trkpt>
      <trkpt lat="52.125054" lon="22.439728">
        <ele>166.342452</ele>
        <time>2026-09-05T13:42:11.830Z</time>
      </trkpt>
      <trkpt lat="52.126757" lon="22.439745">
        <ele>166.880147</ele>
        <time>2026-09-05T13:42:34.485Z</time>
      </trkpt>
      <trkpt lat="52.127046" lon="22.439819">
        <ele>166.973926</ele>
        <time>2026-09-05T13:42:37.916Z</time>
      </trkpt>
      <trkpt lat="52.127290" lon="22.439993">
        <ele>166.939161</ele>
        <time>2026-09-05T13:42:40.909Z</time>
      </trkpt>
      <trkpt lat="52.127450" lon="22.440185">
        <ele>166.887558</ele>
        <time>2026-09-05T13:42:43.127Z</time>
      </trkpt>
      <trkpt lat="52.127611" lon="22.440475">
        <ele>166.825229</ele>
        <time>2026-09-05T13:42:45.819Z</time>
      </trkpt>
      <trkpt lat="52.127685" lon="22.440649">
        <ele>166.791486</ele>
        <time>2026-09-05T13:42:47.271Z</time>
      </trkpt>
      <trkpt lat="52.127790" lon="22.441164">
        <ele>166.704981</ele>
        <time>2026-09-05T13:42:50.985Z</time>
      </trkpt>
      <trkpt lat="52.127929" lon="22.443072">
        <ele>166.439876</ele>
        <time>2026-09-05T13:43:03.750Z</time>
      </trkpt>
      <trkpt lat="52.128088" lon="22.443565">
        <ele>166.379846</ele>
        <time>2026-09-05T13:43:07.780Z</time>
      </trkpt>
      <trkpt lat="52.128262" lon="22.443881">
        <ele>166.334088</ele>
        <time>2026-09-05T13:43:10.866Z</time>
      </trkpt>
      <trkpt lat="52.128617" lon="22.444258">
        <ele>166.259676</ele>
        <time>2026-09-05T13:43:15.732Z</time>
      </trkpt>
      <trkpt lat="52.128901" lon="22.444341">
        <ele>166.208783</ele>
        <time>2026-09-05T13:43:18.975Z</time>
      </trkpt>
      <trkpt lat="52.129089" lon="22.444317">
        <ele>166.168443</ele>
        <time>2026-09-05T13:43:21.073Z</time>
      </trkpt>
      <trkpt lat="52.132017" lon="22.443278">
        <ele>166.012811</ele>
        <time>2026-09-05T13:43:54.771Z</time>
      </trkpt>
      <trkpt lat="52.132577" lon="22.443010">
        <ele>166.254721</ele>
        <time>2026-09-05T13:44:03.645Z</time>
      </trkpt>
      <trkpt lat="52.133748" lon="22.442450">
        <ele>167.541451</ele>
        <time>2026-09-05T13:44:23.805Z</time>
      </trkpt>
      <trkpt lat="52.134311" lon="22.442123">
        <ele>167.927996</ele>
        <time>2026-09-05T13:44:32.200Z</time>
      </trkpt>
      <trkpt lat="52.138184" lon="22.439918">
        <ele>166.701826</ele>
        <time>2026-09-05T13:45:16.397Z</time>
      </trkpt>
      <trkpt lat="52.141235" lon="22.437739">
        <ele>166.267105</ele>
        <time>2026-09-05T13:45:54.070Z</time>
      </trkpt>
      <trkpt lat="52.141380" lon="22.437579">
        <ele>166.332309</ele>
        <time>2026-09-05T13:45:56.348Z</time>
      </trkpt>
      <trkpt lat="52.141493" lon="22.437395">
        <ele>166.391790</ele>
        <time>2026-09-05T13:45:58.566Z</time>
      </trkpt>
      <trkpt lat="52.141896" lon="22.436649">
        <ele>166.618889</ele>
        <time>2026-09-05T13:46:07.143Z</time>
      </trkpt>
      <trkpt lat="52.142033" lon="22.436482">
        <ele>166.682593</ele>
        <time>2026-09-05T13:46:09.573Z</time>
      </trkpt>
      <trkpt lat="52.142117" lon="22.436417">
        <ele>166.717217</ele>
        <time>2026-09-05T13:46:10.878Z</time>
      </trkpt>
      <trkpt lat="52.142167" lon="22.436420">
        <ele>166.735846</ele>
        <time>2026-09-05T13:46:11.593Z</time>
      </trkpt>
      <trkpt lat="52.142260" lon="22.436431">
        <ele>166.770564</ele>
        <time>2026-09-05T13:46:12.868Z</time>
      </trkpt>
      <trkpt lat="52.142535" lon="22.436723">
        <ele>166.877954</ele>
        <time>2026-09-05T13:46:17.261Z</time>
      </trkpt>
      <trkpt lat="52.142644" lon="22.436876">
        <ele>166.924816</ele>
        <time>2026-09-05T13:46:19.129Z</time>
      </trkpt>
      <trkpt lat="52.142803" lon="22.437219">
        <ele>167.010746</ele>
        <time>2026-09-05T13:46:22.513Z</time>
      </trkpt>
      <trkpt lat="52.143037" lon="22.437880">
        <ele>167.163291</ele>
        <time>2026-09-05T13:46:28.466Z</time>
      </trkpt>
      <trkpt lat="52.143807" lon="22.440712">
        <ele>167.659293</ele>
        <time>2026-09-05T13:46:52.341Z</time>
      </trkpt>
      <trkpt lat="52.143938" lon="22.441120">
        <ele>167.724487</ele>
        <time>2026-09-05T13:46:55.951Z</time>
      </trkpt>
      <trkpt lat="52.144859" lon="22.443264">
        <ele>168.064381</ele>
        <time>2026-09-05T13:47:16.083Z</time>
      </trkpt>
      <trkpt lat="52.145681" lon="22.445174">
        <ele>168.367667</ele>
        <time>2026-09-05T13:47:33.805Z</time>
      </trkpt>
      <trkpt lat="52.145894" lon="22.445862">
        <ele>168.468466</ele>
        <time>2026-09-05T13:47:39.872Z</time>
      </trkpt>
      <trkpt lat="52.146013" lon="22.446485">
        <ele>168.534688</ele>
        <time>2026-09-05T13:47:45.066Z</time>
      </trkpt>
      <trkpt lat="52.146256" lon="22.448062">
        <ele>168.544164</ele>
        <time>2026-09-05T13:47:57.350Z</time>
      </trkpt>
      <trkpt lat="52.146369" lon="22.449220">
        <ele>168.546902</ele>
        <time>2026-09-05T13:48:05.464Z</time>
      </trkpt>
      <trkpt lat="52.146453" lon="22.449789">
        <ele>168.433340</ele>
        <time>2026-09-05T13:48:09.370Z</time>
      </trkpt>
      <trkpt lat="52.146720" lon="22.450643">
        <ele>168.247356</ele>
        <time>2026-09-05T13:48:15.684Z</time>
      </trkpt>
      <trkpt lat="52.147911" lon="22.453863">
        <ele>167.830315</ele>
        <time>2026-09-05T13:48:41.393Z</time>
      </trkpt>
      <trkpt lat="52.150460" lon="22.459172">
        <ele>168.926633</ele>
        <time>2026-09-05T13:49:35.917Z</time>
      </trkpt>
      <trkpt lat="52.150845" lon="22.459895">
        <ele>168.526929</ele>
        <time>2026-09-05T13:49:41.957Z</time>
      </trkpt>
      <trkpt lat="52.151168" lon="22.460346">
        <ele>168.237502</ele>
        <time>2026-09-05T13:49:46.094Z</time>
      </trkpt>
      <trkpt lat="52.151694" lon="22.460743">
        <ele>167.842373</ele>
        <time>2026-09-05T13:49:51.615Z</time>
      </trkpt>
      <trkpt lat="52.153064" lon="22.461347">
        <ele>166.487829</ele>
        <time>2026-09-05T13:50:05.595Z</time>
      </trkpt>
      <trkpt lat="52.157608" lon="22.463310">
        <ele>162.926523</ele>
        <time>2026-09-05T13:50:53.165Z</time>
      </trkpt>
      <trkpt lat="52.160851" lon="22.464708">
        <ele>160.950874</ele>
        <time>2026-09-05T13:51:28.958Z</time>
      </trkpt>
      <trkpt lat="52.161048" lon="22.464278">
        <ele>160.628704</ele>
        <time>2026-09-05T13:51:32.299Z</time>
      </trkpt>
      <trkpt lat="52.161187" lon="22.464200">
        <ele>160.484849</ele>
        <time>2026-09-05T13:51:33.765Z</time>
      </trkpt>
      <trkpt lat="52.161266" lon="22.464217">
        <ele>160.406871</ele>
        <time>2026-09-05T13:51:34.571Z</time>
      </trkpt>
      <trkpt lat="52.161927" lon="22.464662">
        <ele>159.707048</ele>
        <time>2026-09-05T13:51:41.293Z</time>
      </trkpt>
      <trkpt lat="52.162077" lon="22.464663">
        <ele>159.491326</ele>
        <time>2026-09-05T13:51:42.645Z</time>
      </trkpt>
      <trkpt lat="52.162101" lon="22.464579">
        <ele>159.398843</ele>
        <time>2026-09-05T13:51:43.166Z</time>
      </trkpt>
      <trkpt lat="52.162192" lon="22.464276">
        <ele>159.062140</ele>
        <time>2026-09-05T13:51:44.974Z</time>
      </trkpt>
      <trkpt lat="52.162288" lon="22.463957">
        <ele>158.707517</ele>
        <time>2026-09-05T13:51:46.864Z</time>
      </trkpt>
      <trkpt lat="52.162307" lon="22.463895">
        <ele>158.638347</ele>
        <time>2026-09-05T13:51:47.241Z</time>
      </trkpt>
      <trkpt lat="52.163270" lon="22.460693">
        <ele>156.088749</ele>
        <time>2026-09-05T13:52:07.280Z</time>
      </trkpt>
      <trkpt lat="52.163358" lon="22.460400">
        <ele>155.961318</ele>
        <time>2026-09-05T13:52:09.809Z</time>
      </trkpt>
      <trkpt lat="52.163786" lon="22.459348">
        <ele>155.604928</ele>
        <time>2026-09-05T13:52:20.478Z</time>
      </trkpt>
      <trkpt lat="52.164055" lon="22.458758">
        <ele>155.633407</ele>
        <time>2026-09-05T13:52:26.965Z</time>
      </trkpt>
      <trkpt lat="52.164458" lon="22.458204">
        <ele>155.666700</ele>
        <time>2026-09-05T13:52:33.528Z</time>
      </trkpt>
      <trkpt lat="52.165476" lon="22.456827">
        <ele>155.419881</ele>
        <time>2026-09-05T13:52:47.310Z</time>
      </trkpt>
      <trkpt lat="52.165786" lon="22.456462">
        <ele>155.262921</ele>
        <time>2026-09-05T13:52:51.243Z</time>
      </trkpt>
      <trkpt lat="52.166754" lon="22.455550">
        <ele>155.093973</ele>
        <time>2026-09-05T13:53:03.769Z</time>
      </trkpt>
      <trkpt lat="52.168028" lon="22.454049">
        <ele>155.534146</ele>
        <time>2026-09-05T13:53:25.328Z</time>
      </trkpt>
      <trkpt lat="52.168206" lon="22.453839">
        <ele>155.532011</ele>
        <time>2026-09-05T13:53:28.185Z</time>
      </trkpt>
      <trkpt lat="52.169629" lon="22.451967">
        <ele>155.552624</ele>
        <time>2026-09-05T13:53:48.808Z</time>
      </trkpt>
      <trkpt lat="52.171688" lon="22.449371">
        <ele>156.534542</ele>
        <time>2026-09-05T13:54:21.276Z</time>
      </trkpt>
      <trkpt lat="52.172035" lon="22.448910">
        <ele>156.852167</ele>
        <time>2026-09-05T13:54:28.546Z</time>
      </trkpt>
      <trkpt lat="52.172376" lon="22.448457">
        <ele>157.217037</ele>
        <time>2026-09-05T13:54:36.602Z</time>
      </trkpt>
      <trkpt lat="52.172567" lon="22.448204">
        <ele>157.432877</ele>
        <time>2026-09-05T13:54:41.171Z</time>
      </trkpt>
      <trkpt lat="52.172707" lon="22.448017">
        <ele>157.591613</ele>
        <time>2026-09-05T13:54:44.419Z</time>
      </trkpt>
      <trkpt lat="52.173209" lon="22.447433">
        <ele>158.132497</ele>
        <time>2026-09-05T13:54:54.098Z</time>
      </trkpt>
      <trkpt lat="52.176243" lon="22.442972">
        <ele>155.868208</ele>
        <time>2026-09-05T13:55:34.960Z</time>
      </trkpt>
      <trkpt lat="52.176400" lon="22.442688">
        <ele>155.965847</ele>
        <time>2026-09-05T13:55:37.719Z</time>
      </trkpt>
      <trkpt lat="52.176647" lon="22.442240">
        <ele>156.119685</ele>
        <time>2026-09-05T13:55:42.575Z</time>
      </trkpt>
      <trkpt lat="52.177373" lon="22.440618">
        <ele>156.512854</ele>
        <time>2026-09-05T13:56:00.795Z</time>
      </trkpt>
      <trkpt lat="52.177617" lon="22.440019">
        <ele>156.073581</ele>
        <time>2026-09-05T13:56:06.016Z</time>
      </trkpt>
      <trkpt lat="52.177976" lon="22.439095">
        <ele>155.405403</ele>
        <time>2026-09-05T13:56:12.564Z</time>
      </trkpt>
      <trkpt lat="52.178108" lon="22.438806">
        <ele>155.185281</ele>
        <time>2026-09-05T13:56:14.527Z</time>
      </trkpt>
      <trkpt lat="52.178283" lon="22.438553">
        <ele>154.952316</ele>
        <time>2026-09-05T13:56:16.536Z</time>
      </trkpt>
      <trkpt lat="52.178477" lon="22.438370">
        <ele>154.707119</ele>
        <time>2026-09-05T13:56:18.425Z</time>
      </trkpt>
      <trkpt lat="52.178633" lon="22.438276">
        <ele>154.493889</ele>
        <time>2026-09-05T13:56:19.837Z</time>
      </trkpt>
      <trkpt lat="52.179150" lon="22.438093">
        <ele>153.815593</ele>
        <time>2026-09-05T13:56:24.420Z</time>
      </trkpt>
      <trkpt lat="52.179401" lon="22.437948">
        <ele>153.474183</ele>
        <time>2026-09-05T13:56:26.851Z</time>
      </trkpt>
      <trkpt lat="52.179676" lon="22.437626">
        <ele>153.040129</ele>
        <time>2026-09-05T13:56:30.022Z</time>
      </trkpt>
      <trkpt lat="52.182101" lon="22.433422">
        <ele>154.281675</ele>
        <time>2026-09-05T13:57:16.681Z</time>
      </trkpt>
      <trkpt lat="52.181879" lon="22.432820">
        <ele>154.654221</ele>
        <time>2026-09-05T13:57:24.502Z</time>
      </trkpt>
      <trkpt lat="52.181647" lon="22.431883">
        <ele>155.540912</ele>
        <time>2026-09-05T13:57:35.993Z</time>
      </trkpt>
      <trkpt lat="52.180870" lon="22.428795">
        <ele>157.898921</ele>
        <time>2026-09-05T13:58:08.369Z</time>
      </trkpt>
      <trkpt lat="52.180467" lon="22.427194">
        <ele>158.518056</ele>
        <time>2026-09-05T13:58:22.028Z</time>
      </trkpt>
      <trkpt lat="52.180536" lon="22.427126">
        <ele>158.490104</ele>
        <time>2026-09-05T13:58:23.281Z</time>
      </trkpt>
      <trkpt lat="52.180556" lon="22.427106">
        <ele>158.481970</ele>
        <time>2026-09-05T13:58:23.654Z</time>
      </trkpt>
      <trkpt lat="52.180906" lon="22.426412">
        <ele>158.290937</ele>
        <time>2026-09-05T13:58:31.864Z</time>
      </trkpt>
      <trkpt lat="52.181174" lon="22.425860">
        <ele>158.141254</ele>
        <time>2026-09-05T13:58:37.996Z</time>
      </trkpt>
      <trkpt lat="52.181655" lon="22.424867">
        <ele>157.955985</ele>
        <time>2026-09-05T13:58:49.550Z</time>
      </trkpt>
      <trkpt lat="52.182439" lon="22.423253">
        <ele>158.246906</ele>
        <time>2026-09-05T13:59:11.635Z</time>
      </trkpt>
      <trkpt lat="52.182484" lon="22.423160">
        <ele>158.263644</ele>
        <time>2026-09-05T13:59:12.905Z</time>
      </trkpt>
      <trkpt lat="52.182687" lon="22.422740">
        <ele>158.339733</ele>
        <time>2026-09-05T13:59:18.545Z</time>
      </trkpt>
      <trkpt lat="52.183454" lon="22.421160">
        <ele>158.692672</ele>
        <time>2026-09-05T13:59:40.187Z</time>
      </trkpt>
      <trkpt lat="52.183926" lon="22.420188">
        <ele>158.855158</ele>
        <time>2026-09-05T13:59:52.358Z</time>
      </trkpt>
      <trkpt lat="52.184193" lon="22.419637">
        <ele>158.864338</ele>
        <time>2026-09-05T13:59:59.552Z</time>
      </trkpt>
      <trkpt lat="52.185153" lon="22.417650">
        <ele>158.809266</ele>
        <time>2026-09-05T14:00:24.747Z</time>
      </trkpt>
      <trkpt lat="52.185844" lon="22.415810">
        <ele>158.538358</ele>
        <time>2026-09-05T14:00:45.558Z</time>
      </trkpt>
      <trkpt lat="52.186460" lon="22.414438">
        <ele>157.916168</ele>
        <time>2026-09-05T14:01:00.373Z</time>
      </trkpt>
      <trkpt lat="52.187632" lon="22.411880">
        <ele>156.974484</ele>
        <time>2026-09-05T14:01:29.033Z</time>
      </trkpt>
      <trkpt lat="52.188126" lon="22.410828">
        <ele>156.717703</ele>
        <time>2026-09-05T14:01:42.083Z</time>
      </trkpt>
      <trkpt lat="52.188197" lon="22.410830">
        <ele>156.714331</ele>
        <time>2026-09-05T14:01:43.280Z</time>
      </trkpt>
      <trkpt lat="52.188983" lon="22.411380">
        <ele>156.673716</ele>
        <time>2026-09-05T14:01:57.255Z</time>
      </trkpt>
      <trkpt lat="52.189263" lon="22.411578">
        <ele>156.659224</ele>
        <time>2026-09-05T14:02:02.120Z</time>
      </trkpt>
      <trkpt lat="52.189356" lon="22.411570">
        <ele>156.654801</ele>
        <time>2026-09-05T14:02:03.564Z</time>
      </trkpt>
      <trkpt lat="52.189439" lon="22.411501">
        <ele>156.650377</ele>
        <time>2026-09-05T14:02:05.028Z</time>
      </trkpt>
      <trkpt lat="52.189861" lon="22.410576">
        <ele>156.419647</ele>
        <time>2026-09-05T14:02:16.138Z</time>
      </trkpt>
      <trkpt lat="52.191732" lon="22.406232">
        <ele>154.826255</ele>
        <time>2026-09-05T14:03:03.718Z</time>
      </trkpt>
      <trkpt lat="52.192749" lon="22.403879">
        <ele>155.036881</ele>
        <time>2026-09-05T14:03:33.498Z</time>
      </trkpt>
      <trkpt lat="52.193668" lon="22.401715">
        <ele>155.601059</ele>
        <time>2026-09-05T14:04:01.378Z</time>
      </trkpt>
      <trkpt lat="52.193796" lon="22.401309">
        <ele>155.690042</ele>
        <time>2026-09-05T14:04:06.234Z</time>
      </trkpt>
      <trkpt lat="52.193832" lon="22.400989">
        <ele>155.749620</ele>
        <time>2026-09-05T14:04:09.700Z</time>
      </trkpt>
      <trkpt lat="52.194115" lon="22.396678">
        <ele>155.986931</ele>
        <time>2026-09-05T14:04:55.111Z</time>
      </trkpt>
      <trkpt lat="52.194508" lon="22.390786">
        <ele>152.860548</ele>
        <time>2026-09-05T14:05:45.527Z</time>
      </trkpt>
      <trkpt lat="52.194561" lon="22.389933">
        <ele>152.323424</ele>
        <time>2026-09-05T14:05:52.610Z</time>
      </trkpt>
      <trkpt lat="52.194575" lon="22.389718">
        <ele>152.298564</ele>
        <time>2026-09-05T14:05:54.431Z</time>
      </trkpt>
      <trkpt lat="52.194585" lon="22.389563">
        <ele>152.283566</ele>
        <time>2026-09-05T14:05:55.779Z</time>
      </trkpt>
      <trkpt lat="52.194671" lon="22.388242">
        <ele>152.155727</ele>
        <time>2026-09-05T14:06:07.795Z</time>
      </trkpt>
      <trkpt lat="52.195055" lon="22.382412">
        <ele>154.135683</ele>
        <time>2026-09-05T14:07:13.861Z</time>
      </trkpt>
      <trkpt lat="52.195104" lon="22.380895">
        <ele>154.950542</ele>
        <time>2026-09-05T14:07:31.601Z</time>
      </trkpt>
      <trkpt lat="52.195341" lon="22.377515">
        <ele>157.007986</ele>
        <time>2026-09-05T14:08:13.138Z</time>
      </trkpt>
      <trkpt lat="52.195373" lon="22.377169">
        <ele>157.135066</ele>
        <time>2026-09-05T14:08:16.925Z</time>
      </trkpt>
      <trkpt lat="52.195377" lon="22.376773">
        <ele>157.278901</ele>
        <time>2026-09-05T14:08:21.121Z</time>
      </trkpt>
      <trkpt lat="52.195344" lon="22.376455">
        <ele>157.396033</ele>
        <time>2026-09-05T14:08:24.529Z</time>
      </trkpt>
      <trkpt lat="52.195281" lon="22.376100">
        <ele>157.530254</ele>
        <time>2026-09-05T14:08:28.423Z</time>
      </trkpt>
      <trkpt lat="52.195129" lon="22.375549">
        <ele>157.749693</ele>
        <time>2026-09-05T14:08:34.693Z</time>
      </trkpt>
      <trkpt lat="52.195052" lon="22.375388">
        <ele>157.826753</ele>
        <time>2026-09-05T14:08:36.729Z</time>
      </trkpt>
      <trkpt lat="52.193500" lon="22.372138">
        <ele>159.788928</ele>
        <time>2026-09-05T14:09:23.494Z</time>
      </trkpt>
      <trkpt lat="52.192823" lon="22.370737">
        <ele>160.826393</ele>
        <time>2026-09-05T14:09:45.759Z</time>
      </trkpt>
      <trkpt lat="52.192686" lon="22.370405">
        <ele>160.828621</ele>
        <time>2026-09-05T14:09:50.459Z</time>
      </trkpt>
      <trkpt lat="52.192670" lon="22.370043">
        <ele>160.830642</ele>
        <time>2026-09-05T14:09:54.536Z</time>
      </trkpt>
      <trkpt lat="52.192722" lon="22.369677">
        <ele>160.832733</ele>
        <time>2026-09-05T14:09:58.606Z</time>
      </trkpt>
      <trkpt lat="52.192769" lon="22.369377">
        <ele>160.834457</ele>
        <time>2026-09-05T14:10:01.806Z</time>
      </trkpt>
      <trkpt lat="52.192852" lon="22.368799">
        <ele>160.837762</ele>
        <time>2026-09-05T14:10:07.502Z</time>
      </trkpt>
      <trkpt lat="52.192959" lon="22.367721">
        <ele>160.559175</ele>
        <time>2026-09-05T14:10:16.857Z</time>
      </trkpt>
      <trkpt lat="52.193274" lon="22.365470">
        <ele>158.290347</ele>
        <time>2026-09-05T14:10:35.164Z</time>
      </trkpt>
      <trkpt lat="52.193615" lon="22.362444">
        <ele>154.938932</ele>
        <time>2026-09-05T14:10:59.023Z</time>
      </trkpt>
      <trkpt lat="52.193768" lon="22.361112">
        <ele>154.315144</ele>
        <time>2026-09-05T14:11:10.407Z</time>
      </trkpt>
      <trkpt lat="52.193774" lon="22.360826">
        <ele>154.214243</ele>
        <time>2026-09-05T14:11:12.951Z</time>
      </trkpt>
      <trkpt lat="52.193703" lon="22.360356">
        <ele>154.043565</ele>
        <time>2026-09-05T14:11:17.525Z</time>
      </trkpt>
      <trkpt lat="52.193631" lon="22.360108">
        <ele>153.946810</ele>
        <time>2026-09-05T14:11:20.199Z</time>
      </trkpt>
      <trkpt lat="52.193428" lon="22.359617">
        <ele>153.737988</ele>
        <time>2026-09-05T14:11:26.053Z</time>
      </trkpt>
      <trkpt lat="52.193081" lon="22.358734">
        <ele>154.027072</ele>
        <time>2026-09-05T14:11:36.928Z</time>
      </trkpt>
      <trkpt lat="52.193039" lon="22.358521">
        <ele>154.109822</ele>
        <time>2026-09-05T14:11:39.381Z</time>
      </trkpt>
      <trkpt lat="52.193088" lon="22.358094">
        <ele>154.270484</ele>
        <time>2026-09-05T14:11:44.358Z</time>
      </trkpt>
      <trkpt lat="52.194566" lon="22.352808">
        <ele>157.049763</ele>
        <time>2026-09-05T14:12:52.351Z</time>
      </trkpt>
      <trkpt lat="52.195453" lon="22.349588">
        <ele>158.010332</ele>
        <time>2026-09-05T14:13:29.842Z</time>
      </trkpt>
      <trkpt lat="52.196344" lon="22.346479">
        <ele>158.370356</ele>
        <time>2026-09-05T14:14:04.877Z</time>
      </trkpt>
      <trkpt lat="52.198082" lon="22.340166">
        <ele>158.466415</ele>
        <time>2026-09-05T14:15:14.193Z</time>
      </trkpt>
      <trkpt lat="52.198592" lon="22.338274">
        <ele>158.204217</ele>
        <time>2026-09-05T14:15:33.456Z</time>
      </trkpt>
      <trkpt lat="52.198877" lon="22.337259">
        <ele>158.264022</ele>
        <time>2026-09-05T14:15:44.048Z</time>
      </trkpt>
      <trkpt lat="52.198934" lon="22.337076">
        <ele>158.280535</ele>
        <time>2026-09-05T14:15:46.041Z</time>
      </trkpt>
      <trkpt lat="52.198848" lon="22.336975">
        <ele>158.294443</ele>
        <time>2026-09-05T14:15:47.330Z</time>
      </trkpt>
      <trkpt lat="52.198758" lon="22.336870">
        <ele>158.308966</ele>
        <time>2026-09-05T14:15:48.595Z</time>
      </trkpt>
      <trkpt lat="52.198437" lon="22.336497">
        <ele>158.360691</ele>
        <time>2026-09-05T14:15:53.443Z</time>
      </trkpt>
      <trkpt lat="52.196436" lon="22.334167">
        <ele>159.483564</ele>
        <time>2026-09-05T14:16:28.977Z</time>
      </trkpt>
      <trkpt lat="52.195003" lon="22.332783">
        <ele>158.296338</ele>
        <time>2026-09-05T14:16:45.552Z</time>
      </trkpt>
      <trkpt lat="52.193475" lon="22.331356">
        <ele>155.171860</ele>
        <time>2026-09-05T14:17:00.875Z</time>
      </trkpt>
      <trkpt lat="52.192588" lon="22.330508">
        <ele>154.435244</ele>
        <time>2026-09-05T14:17:11.083Z</time>
      </trkpt>
      <trkpt lat="52.192519" lon="22.330442">
        <ele>154.377935</ele>
        <time>2026-09-05T14:17:12.012Z</time>
      </trkpt>
      <trkpt lat="52.191599" lon="22.329545">
        <ele>153.892127</ele>
        <time>2026-09-05T14:17:24.580Z</time>
      </trkpt>
      <trkpt lat="52.191423" lon="22.329373">
        <ele>153.888728</ele>
        <time>2026-09-05T14:17:26.947Z</time>
      </trkpt>
      <trkpt lat="52.191157" lon="22.329079">
        <ele>153.883404</ele>
        <time>2026-09-05T14:17:30.716Z</time>
      </trkpt>
      <trkpt lat="52.190877" lon="22.328684">
        <ele>153.877270</ele>
        <time>2026-09-05T14:17:35.182Z</time>
      </trkpt>
      <trkpt lat="52.188807" lon="22.325502">
        <ele>153.349786</ele>
        <time>2026-09-05T14:18:08.799Z</time>
      </trkpt>
      <trkpt lat="52.186318" lon="22.321524">
        <ele>150.232516</ele>
        <time>2026-09-05T14:18:42.144Z</time>
      </trkpt>
      <trkpt lat="52.185659" lon="22.320451">
        <ele>149.984746</ele>
        <time>2026-09-05T14:18:52.425Z</time>
      </trkpt>
      <trkpt lat="52.185635" lon="22.320413">
        <ele>149.975846</ele>
        <time>2026-09-05T14:18:52.837Z</time>
      </trkpt>
      <trkpt lat="52.184335" lon="22.318205">
        <ele>150.297241</ele>
        <time>2026-09-05T14:19:19.713Z</time>
      </trkpt>
      <trkpt lat="52.184250" lon="22.318049">
        <ele>150.334302</ele>
        <time>2026-09-05T14:19:21.158Z</time>
      </trkpt>
      <trkpt lat="52.183858" lon="22.317324">
        <ele>149.625257</ele>
        <time>2026-09-05T14:19:26.860Z</time>
      </trkpt>
      <trkpt lat="52.183609" lon="22.316849">
        <ele>148.890464</ele>
        <time>2026-09-05T14:19:30.235Z</time>
      </trkpt>
      <trkpt lat="52.183313" lon="22.316299">
        <ele>148.029999</ele>
        <time>2026-09-05T14:19:34.016Z</time>
      </trkpt>
      <trkpt lat="52.183033" lon="22.315693">
        <ele>147.137805</ele>
        <time>2026-09-05T14:19:37.875Z</time>
      </trkpt>
      <trkpt lat="52.182762" lon="22.314961">
        <ele>146.542695</ele>
        <time>2026-09-05T14:19:42.395Z</time>
      </trkpt>
      <trkpt lat="52.182704" lon="22.314807">
        <ele>146.437991</ele>
        <time>2026-09-05T14:19:43.396Z</time>
      </trkpt>
      <trkpt lat="52.182495" lon="22.314286">
        <ele>146.077298</ele>
        <time>2026-09-05T14:19:47.045Z</time>
      </trkpt>
      <trkpt lat="52.181163" lon="22.311591">
        <ele>145.649166</ele>
        <time>2026-09-05T14:20:12.540Z</time>
      </trkpt>
      <trkpt lat="52.180762" lon="22.310787">
        <ele>145.914872</ele>
        <time>2026-09-05T14:20:21.730Z</time>
      </trkpt>
      <trkpt lat="52.180579" lon="22.310421">
        <ele>146.228716</ele>
        <time>2026-09-05T14:20:26.110Z</time>
      </trkpt>
      <trkpt lat="52.180281" lon="22.309860">
        <ele>146.721978</ele>
        <time>2026-09-05T14:20:33.224Z</time>
      </trkpt>
      <trkpt lat="52.180085" lon="22.309502">
        <ele>147.040927</ele>
        <time>2026-09-05T14:20:37.886Z</time>
      </trkpt>
      <trkpt lat="52.179918" lon="22.309200">
        <ele>147.311187</ele>
        <time>2026-09-05T14:20:41.867Z</time>
      </trkpt>
      <trkpt lat="52.179766" lon="22.308939">
        <ele>147.550404</ele>
        <time>2026-09-05T14:20:45.250Z</time>
      </trkpt>
      <trkpt lat="52.179456" lon="22.308401">
        <ele>147.923123</ele>
        <time>2026-09-05T14:20:52.135Z</time>
      </trkpt>
      <trkpt lat="52.179385" lon="22.308277">
        <ele>147.984355</ele>
        <time>2026-09-05T14:20:53.726Z</time>
      </trkpt>
      <trkpt lat="52.179337" lon="22.308193">
        <ele>148.025796</ele>
        <time>2026-09-05T14:20:54.833Z</time>
      </trkpt>
      <trkpt lat="52.177763" lon="22.305451">
        <ele>148.917919</ele>
        <time>2026-09-05T14:21:25.213Z</time>
      </trkpt>
      <trkpt lat="52.177661" lon="22.305262">
        <ele>148.930760</ele>
        <time>2026-09-05T14:21:26.975Z</time>
      </trkpt>
      <trkpt lat="52.177538" lon="22.305054">
        <ele>148.945498</ele>
        <time>2026-09-05T14:21:28.912Z</time>
      </trkpt>
      <trkpt lat="52.177262" lon="22.304554">
        <ele>148.979810</ele>
        <time>2026-09-05T14:21:33.287Z</time>
      </trkpt>
      <trkpt lat="52.177161" lon="22.304378">
        <ele>148.991037</ele>
        <time>2026-09-05T14:21:34.887Z</time>
      </trkpt>
      <trkpt lat="52.176758" lon="22.303677">
        <ele>148.979333</ele>
        <time>2026-09-05T14:21:42.091Z</time>
      </trkpt>
      <trkpt lat="52.176687" lon="22.303556">
        <ele>148.977293</ele>
        <time>2026-09-05T14:21:43.454Z</time>
      </trkpt>
      <trkpt lat="52.176064" lon="22.302479">
        <ele>148.959260</ele>
        <time>2026-09-05T14:21:54.545Z</time>
      </trkpt>
      <trkpt lat="52.175597" lon="22.301673">
        <ele>148.869103</ele>
        <time>2026-09-05T14:22:01.979Z</time>
      </trkpt>
      <trkpt lat="52.175491" lon="22.301473">
        <ele>148.840606</ele>
        <time>2026-09-05T14:22:03.635Z</time>
      </trkpt>
      <trkpt lat="52.175442" lon="22.301245">
        <ele>148.814561</ele>
        <time>2026-09-05T14:22:05.156Z</time>
      </trkpt>
      <trkpt lat="52.175421" lon="22.301047">
        <ele>148.792899</ele>
        <time>2026-09-05T14:22:06.414Z</time>
      </trkpt>
      <trkpt lat="52.175440" lon="22.300856">
        <ele>148.772040</ele>
        <time>2026-09-05T14:22:07.593Z</time>
      </trkpt>
      <trkpt lat="52.175405" lon="22.300768">
        <ele>148.760732</ele>
        <time>2026-09-05T14:22:08.288Z</time>
      </trkpt>
      <trkpt lat="52.175317" lon="22.300709">
        <ele>148.744006</ele>
        <time>2026-09-05T14:22:09.257Z</time>
      </trkpt>
      <trkpt lat="52.175227" lon="22.300764">
        <ele>148.727110</ele>
        <time>2026-09-05T14:22:10.281Z</time>
      </trkpt>
      <trkpt lat="52.175144" lon="22.300707">
        <ele>148.711278</ele>
        <time>2026-09-05T14:22:11.259Z</time>
      </trkpt>
      <trkpt lat="52.175152" lon="22.300686">
        <ele>148.708613</ele>
        <time>2026-09-05T14:22:11.416Z</time>
      </trkpt>
      <trkpt lat="52.175172" lon="22.300608">
        <ele>148.699499</ele>
        <time>2026-09-05T14:22:12.170Z</time>
      </trkpt>
      <trkpt lat="52.175137" lon="22.300540">
        <ele>148.689929</ele>
        <time>2026-09-05T14:22:12.740Z</time>
      </trkpt>
      <trkpt lat="52.174014" lon="22.298628">
        <ele>150.018862</ele>
        <time>2026-09-05T14:22:37.069Z</time>
      </trkpt>
      <trkpt lat="52.174001" lon="22.298607">
        <ele>150.037761</ele>
        <time>2026-09-05T14:22:37.458Z</time>
      </trkpt>
      <trkpt lat="52.173984" lon="22.298577">
        <ele>150.063632</ele>
        <time>2026-09-05T14:22:38.018Z</time>
      </trkpt>
      <trkpt lat="52.173980" lon="22.298570">
        <ele>150.069692</ele>
        <time>2026-09-05T14:22:38.111Z</time>
      </trkpt>
      <trkpt lat="52.173632" lon="22.297990">
        <ele>150.546023</ele>
        <time>2026-09-05T14:22:46.422Z</time>
      </trkpt>
      <trkpt lat="52.173545" lon="22.297800">
        <ele>150.631064</ele>
        <time>2026-09-05T14:22:48.850Z</time>
      </trkpt>
      <trkpt lat="52.173431" lon="22.297642">
        <ele>150.718560</ele>
        <time>2026-09-05T14:22:51.311Z</time>
      </trkpt>
      <trkpt lat="52.173270" lon="22.297322">
        <ele>150.867006</ele>
        <time>2026-09-05T14:22:55.266Z</time>
      </trkpt>
      <trkpt lat="52.173071" lon="22.296970">
        <ele>151.038706</ele>
        <time>2026-09-05T14:22:59.455Z</time>
      </trkpt>
      <trkpt lat="52.173062" lon="22.296950">
        <ele>151.047603</ele>
        <time>2026-09-05T14:22:59.689Z</time>
      </trkpt>
      <trkpt lat="52.172952" lon="22.296775">
        <ele>151.137477</ele>
        <time>2026-09-05T14:23:01.725Z</time>
      </trkpt>
      <trkpt lat="52.172818" lon="22.296675">
        <ele>151.223658</ele>
        <time>2026-09-05T14:23:03.612Z</time>
      </trkpt>
      <trkpt lat="52.172673" lon="22.296475">
        <ele>151.334724</ele>
        <time>2026-09-05T14:23:06.018Z</time>
      </trkpt>
      <trkpt lat="52.172662" lon="22.296493">
        <ele>151.343838</ele>
        <time>2026-09-05T14:23:06.195Z</time>
      </trkpt>
      <trkpt lat="52.172643" lon="22.296524">
        <ele>151.359557</ele>
        <time>2026-09-05T14:23:06.472Z</time>
      </trkpt>
      <trkpt lat="52.172545" lon="22.296354">
        <ele>151.443234</ele>
        <time>2026-09-05T14:23:08.040Z</time>
      </trkpt>
      <trkpt lat="52.172434" lon="22.296154">
        <ele>151.539976</ele>
        <time>2026-09-05T14:23:09.818Z</time>
      </trkpt>
      <trkpt lat="52.172142" lon="22.295650">
        <ele>151.271588</ele>
        <time>2026-09-05T14:23:14.519Z</time>
      </trkpt>
      <trkpt lat="52.171959" lon="22.295329">
        <ele>151.089920</ele>
        <time>2026-09-05T14:23:17.286Z</time>
      </trkpt>
      <trkpt lat="52.171790" lon="22.295015">
        <ele>150.916747</ele>
        <time>2026-09-05T14:23:19.804Z</time>
      </trkpt>
      <trkpt lat="52.171641" lon="22.294760">
        <ele>150.770751</ele>
        <time>2026-09-05T14:23:22.017Z</time>
      </trkpt>
      <trkpt lat="52.171170" lon="22.293952">
        <ele>150.333113</ele>
        <time>2026-09-05T14:23:28.859Z</time>
      </trkpt>
      <trkpt lat="52.171095" lon="22.293827">
        <ele>150.333113</ele>
        <time>2026-09-05T14:23:29.889Z</time>
      </trkpt>
      <trkpt lat="52.170695" lon="22.293136">
        <ele>150.333113</ele>
        <time>2026-09-05T14:23:35.684Z</time>
      </trkpt>
      <trkpt lat="52.170451" lon="22.292717">
        <ele>150.333113</ele>
        <time>2026-09-05T14:23:39.296Z</time>
      </trkpt>
      <trkpt lat="52.170494" lon="22.292639">
        <ele>150.333113</ele>
        <time>2026-09-05T14:23:44.993Z</time>
      </trkpt>
      <trkpt lat="52.170528" lon="22.292588">
        <ele>150.333113</ele>
        <time>2026-09-05T14:23:48.971Z</time>
      </trkpt>
      <trkpt lat="52.170553" lon="22.292631">
        <ele>150.333113</ele>
        <time>2026-09-05T14:23:52.118Z</time>
      </trkpt>
      <trkpt lat="52.170704" lon="22.292356">
        <ele>150.333113</ele>
        <time>2026-09-05T14:24:11.996Z</time>
      </trkpt>
      <trkpt lat="52.170710" lon="22.292291">
        <ele>150.333113</ele>
        <time>2026-09-05T14:24:15.503Z</time>
      </trkpt>
      <trkpt lat="52.170687" lon="22.292222">
        <ele>150.333113</ele>
        <time>2026-09-05T14:24:19.727Z</time>
      </trkpt>
      <trkpt lat="52.170599" lon="22.292137">
        <ele>150.333113</ele>
        <time>2026-09-05T14:24:28.660Z</time>
      </trkpt>
      <trkpt lat="52.170549" lon="22.292250">
        <ele>150.333113</ele>
        <time>2026-09-05T14:24:36.117Z</time>
      </trkpt>
    </trkseg>
  </trk>
</gpx>